UAE765 OMDB-FAOR
Flight info
| Callsign | UAE765 |
|---|---|
| Flight time | 7h 28m |
| Altitude | 34000 |
| Route | ANVIX R401 GIDIS G783 UKRAG/N0500F330 L710 KUKDI/N0498F340 B400 VEDET UL437 MOGDU/N0493F360 UL437 ELAVA DCT BONAP UM310 VBR/N0488F380 UM307 EPSEK UZ33 NESAG UZ7 OKPIT OKPIT1C |
| Aircraft | B77W/H-SDE1E2E3FGHIJ2J3J4J5M1RWXY/LB1D1 |
Departure
| Time | 2026-04-26 10:52 |
|---|---|
| Airport | Dubai International Airport (OMDB) |
Arrival
| Time | 2026-04-26 18:20 |
|---|---|
| Airport | O.R. Tambo International Airport (FAOR) |
| Time | Latitude | Longitude | Altitude | Speed | Heading |
|---|---|---|---|---|---|
| 2026-04-26 10:16 | 25.24197 | 55.37248 | 30 ft | 0 kts | 31° |
| 2026-04-26 10:31 | 25.24190 | 55.37244 | 26 ft | 2 kts | 31° |
| 2026-04-26 10:32 | 25.24173 | 55.37232 | 34 ft | 3 kts | 31° |
| 2026-04-26 10:32 | 25.24157 | 55.37221 | 45 ft | 3 kts | 35° |
| 2026-04-26 10:32 | 25.24143 | 55.37209 | 31 ft | 3 kts | 55° |
| 2026-04-26 10:32 | 25.24135 | 55.37192 | 31 ft | 3 kts | 78° |
| 2026-04-26 10:33 | 25.24133 | 55.37174 | 31 ft | 3 kts | 98° |
| 2026-04-26 10:33 | 25.24137 | 55.37154 | 31 ft | 3 kts | 116° |
| 2026-04-26 10:33 | 25.24143 | 55.37142 | 31 ft | 1 kts | 121° |
| 2026-04-26 10:33 | 25.24152 | 55.37125 | 31 ft | 3 kts | 121° |
| 2026-04-26 10:34 | 25.24159 | 55.37112 | 31 ft | 0 kts | 121° |
| 2026-04-26 10:34 | 25.24160 | 55.37112 | 31 ft | 6 kts | 121° |
| 2026-04-26 10:37 | 25.24153 | 55.37123 | 31 ft | 5 kts | 121° |
| 2026-04-26 10:37 | 25.24133 | 55.37160 | 31 ft | 6 kts | 121° |
| 2026-04-26 10:37 | 25.24113 | 55.37196 | 31 ft | 6 kts | 121° |
| 2026-04-26 10:37 | 25.24093 | 55.37232 | 29 ft | 6 kts | 121° |
| 2026-04-26 10:38 | 25.24072 | 55.37269 | 30 ft | 6 kts | 122° |
| 2026-04-26 10:38 | 25.24033 | 55.37337 | 31 ft | 12 kts | 122° |
| 2026-04-26 10:38 | 25.23991 | 55.37414 | 31 ft | 12 kts | 118° |
| 2026-04-26 10:38 | 25.23968 | 55.37501 | 26 ft | 12 kts | 90° |
| 2026-04-26 10:39 | 25.23998 | 55.37583 | 30 ft | 12 kts | 51° |
| 2026-04-26 10:39 | 25.24065 | 55.37636 | 30 ft | 12 kts | 31° |
| 2026-04-26 10:39 | 25.24123 | 55.37675 | 29 ft | 8 kts | 31° |
| 2026-04-26 10:39 | 25.24167 | 55.37704 | 30 ft | 5 kts | 31° |
| 2026-04-26 10:40 | 25.24172 | 55.37708 | 30 ft | 0 kts | 31° |
| 2026-04-26 10:44 | 25.24191 | 55.37720 | 29 ft | 8 kts | 31° |
| 2026-04-26 10:44 | 25.24239 | 55.37753 | 26 ft | 9 kts | 31° |
| 2026-04-26 10:44 | 25.24293 | 55.37790 | 27 ft | 9 kts | 32° |
| 2026-04-26 10:45 | 25.24347 | 55.37828 | 29 ft | 7 kts | 34° |
| 2026-04-26 10:45 | 25.24352 | 55.37832 | 29 ft | 0 kts | 34° |
| 2026-04-26 10:47 | 25.24373 | 55.37848 | 30 ft | 5 kts | 34° |
| 2026-04-26 10:47 | 25.24413 | 55.37878 | 33 ft | 10 kts | 34° |
| 2026-04-26 10:47 | 25.24468 | 55.37919 | 35 ft | 10 kts | 34° |
| 2026-04-26 10:47 | 25.24523 | 55.37961 | 33 ft | 11 kts | 34° |
| 2026-04-26 10:48 | 25.24595 | 55.38015 | 30 ft | 13 kts | 34° |
| 2026-04-26 10:48 | 25.24640 | 55.38047 | 30 ft | 0 kts | 32° |
| 2026-04-26 10:50 | 25.24655 | 55.38057 | 31 ft | 7 kts | 31° |
| 2026-04-26 10:50 | 25.24683 | 55.38076 | 32 ft | 7 kts | 31° |
| 2026-04-26 10:50 | 25.24742 | 55.38105 | 35 ft | 7 kts | 359° |
| 2026-04-26 10:50 | 25.24781 | 55.38075 | 35 ft | 7 kts | 308° |
| 2026-04-26 10:51 | 25.24816 | 55.38011 | 34 ft | 23 kts | 301° |
| 2026-04-26 10:51 | 25.25481 | 55.36810 | 33 ft | 156 kts | 301° |
| 2026-04-26 10:51 | 25.26132 | 55.35639 | 157 ft | 193 kts | 301° |
| 2026-04-26 10:52 | 25.26849 | 55.34358 | 455 ft | 197 kts | 302° |
| 2026-04-26 10:52 | 25.27606 | 55.33050 | 870 ft | 206 kts | 303° |
| 2026-04-26 10:52 | 25.28348 | 55.31739 | 1639 ft | 204 kts | 302° |
| 2026-04-26 10:52 | 25.29049 | 55.30328 | 2100 ft | 212 kts | 289° |
| 2026-04-26 10:53 | 25.29192 | 55.29264 | 2547 ft | 211 kts | 268° |
| 2026-04-26 10:53 | 25.28625 | 55.27143 | 3106 ft | 227 kts | 245° |
| 2026-04-26 10:53 | 25.27936 | 55.25549 | 3673 ft | 230 kts | 248° |
| 2026-04-26 10:54 | 25.26772 | 55.22834 | 4519 ft | 237 kts | 246° |
| 2026-04-26 10:54 | 25.26050 | 55.21171 | 5021 ft | 242 kts | 246° |
| 2026-04-26 10:54 | 25.25332 | 55.19502 | 5668 ft | 239 kts | 245° |
| 2026-04-26 10:54 | 25.24517 | 55.17905 | 6186 ft | 242 kts | 229° |
| 2026-04-26 10:55 | 25.23109 | 55.16893 | 6602 ft | 252 kts | 198° |
| 2026-04-26 10:55 | 25.21387 | 55.16737 | 7285 ft | 247 kts | 179° |
| 2026-04-26 10:55 | 25.19661 | 55.16953 | 7726 ft | 255 kts | 167° |
| 2026-04-26 10:55 | 25.18123 | 55.17988 | 8019 ft | 270 kts | 132° |
| 2026-04-26 10:56 | 25.17137 | 55.19786 | 8374 ft | 277 kts | 118° |
| 2026-04-26 10:56 | 25.16253 | 55.21698 | 8903 ft | 282 kts | 119° |
| 2026-04-26 10:56 | 25.15348 | 55.23623 | 9591 ft | 282 kts | 120° |
| 2026-04-26 10:56 | 25.14430 | 55.25555 | 10080 ft | 288 kts | 120° |
| 2026-04-26 10:57 | 25.13483 | 55.27535 | 10582 ft | 294 kts | 120° |
| 2026-04-26 10:57 | 25.12521 | 55.29542 | 11159 ft | 298 kts | 120° |
| 2026-04-26 10:57 | 25.11547 | 55.31570 | 11787 ft | 302 kts | 120° |
| 2026-04-26 10:57 | 25.10560 | 55.33641 | 12446 ft | 306 kts | 118° |
| 2026-04-26 10:58 | 25.09657 | 55.35783 | 13161 ft | 309 kts | 116° |
| 2026-04-26 10:58 | 25.08780 | 55.37955 | 13926 ft | 311 kts | 116° |
| 2026-04-26 10:58 | 25.07888 | 55.40151 | 14595 ft | 316 kts | 116° |
| 2026-04-26 10:58 | 25.06993 | 55.42356 | 15141 ft | 323 kts | 116° |
| 2026-04-26 10:59 | 25.06081 | 55.44706 | 15374 ft | 344 kts | 115° |
| 2026-04-26 10:59 | 25.05126 | 55.47212 | 15545 ft | 365 kts | 115° |
| 2026-04-26 10:59 | 25.04110 | 55.49870 | 15704 ft | 386 kts | 115° |
| 2026-04-26 10:59 | 25.03033 | 55.52672 | 15910 ft | 404 kts | 115° |
| 2026-04-26 11:00 | 25.01913 | 55.55560 | 16352 ft | 414 kts | 116° |
| 2026-04-26 11:00 | 25.00570 | 55.58386 | 16842 ft | 419 kts | 123° |
| 2026-04-26 11:00 | 24.99025 | 55.61123 | 17463 ft | 422 kts | 125° |
| 2026-04-26 11:00 | 24.97450 | 55.63856 | 18165 ft | 424 kts | 124° |
| 2026-04-26 11:01 | 24.95892 | 55.66656 | 18617 ft | 432 kts | 123° |
| 2026-04-26 11:01 | 24.94340 | 55.69515 | 19078 ft | 437 kts | 123° |
| 2026-04-26 11:01 | 24.92679 | 55.72333 | 19589 ft | 440 kts | 128° |
| 2026-04-26 11:01 | 24.90857 | 55.75059 | 20102 ft | 443 kts | 129° |
| 2026-04-26 11:02 | 24.89005 | 55.77739 | 20604 ft | 447 kts | 129° |
| 2026-04-26 11:02 | 24.87129 | 55.80491 | 21100 ft | 452 kts | 128° |
| 2026-04-26 11:02 | 24.85253 | 55.83298 | 21597 ft | 457 kts | 128° |
| 2026-04-26 11:02 | 24.83369 | 55.86137 | 22093 ft | 461 kts | 128° |
| 2026-04-26 11:03 | 24.81451 | 55.88987 | 22562 ft | 463 kts | 130° |
| 2026-04-26 11:03 | 24.79179 | 55.91479 | 22816 ft | 465 kts | 148° |
| 2026-04-26 11:03 | 24.76296 | 55.93052 | 23255 ft | 463 kts | 164° |
| 2026-04-26 11:03 | 24.73158 | 55.93780 | 23722 ft | 461 kts | 179° |
| 2026-04-26 11:04 | 24.69962 | 55.93717 | 24194 ft | 458 kts | 186° |
| 2026-04-26 11:04 | 24.66768 | 55.93526 | 24604 ft | 461 kts | 185° |
| 2026-04-26 11:04 | 24.63558 | 55.93302 | 24934 ft | 462 kts | 191° |
| 2026-04-26 11:04 | 24.60443 | 55.92425 | 25247 ft | 462 kts | 204° |
| 2026-04-26 11:05 | 24.57561 | 55.90880 | 25696 ft | 461 kts | 214° |
| 2026-04-26 11:05 | 24.55054 | 55.88791 | 26101 ft | 458 kts | 223° |
| 2026-04-26 11:05 | 24.52684 | 55.86441 | 26446 ft | 461 kts | 224° |
| 2026-04-26 11:05 | 24.50302 | 55.84064 | 26802 ft | 465 kts | 224° |
| 2026-04-26 11:06 | 24.47886 | 55.81682 | 27202 ft | 467 kts | 223° |
| 2026-04-26 11:06 | 24.45446 | 55.79311 | 27602 ft | 469 kts | 223° |
| 2026-04-26 11:06 | 24.42989 | 55.76949 | 27980 ft | 471 kts | 223° |
| 2026-04-26 11:06 | 24.40511 | 55.74575 | 28311 ft | 474 kts | 223° |
| 2026-04-26 11:07 | 24.38020 | 55.72192 | 28641 ft | 476 kts | 223° |
| 2026-04-26 11:07 | 24.35516 | 55.69787 | 28964 ft | 479 kts | 223° |
| 2026-04-26 11:07 | 24.33014 | 55.67371 | 29286 ft | 481 kts | 223° |
| 2026-04-26 11:07 | 24.30495 | 55.64938 | 29585 ft | 483 kts | 222° |
| 2026-04-26 11:08 | 24.27851 | 55.62711 | 29931 ft | 486 kts | 214° |
| 2026-04-26 11:08 | 24.24914 | 55.60872 | 30312 ft | 486 kts | 208° |
| 2026-04-26 11:08 | 24.21829 | 55.59368 | 30714 ft | 486 kts | 203° |
| 2026-04-26 11:08 | 24.18590 | 55.58265 | 31080 ft | 487 kts | 198° |
| 2026-04-26 11:09 | 24.15308 | 55.57335 | 31402 ft | 488 kts | 197° |
| 2026-04-26 11:09 | 24.12019 | 55.56419 | 31715 ft | 487 kts | 198° |
| 2026-04-26 11:09 | 24.08737 | 55.55486 | 32060 ft | 487 kts | 198° |
| 2026-04-26 11:09 | 24.05468 | 55.54530 | 32376 ft | 486 kts | 199° |
| 2026-04-26 11:10 | 24.02207 | 55.53564 | 32705 ft | 485 kts | 199° |
| 2026-04-26 11:10 | 23.98950 | 55.52595 | 33019 ft | 485 kts | 199° |
| 2026-04-26 11:10 | 23.95697 | 55.51625 | 33328 ft | 485 kts | 199° |
| 2026-04-26 11:10 | 23.92440 | 55.50654 | 33607 ft | 485 kts | 199° |
| 2026-04-26 11:11 | 23.89182 | 55.49684 | 33813 ft | 486 kts | 199° |
| 2026-04-26 11:11 | 23.85903 | 55.48708 | 33851 ft | 489 kts | 199° |
| 2026-04-26 11:11 | 23.79383 | 55.46769 | 33880 ft | 486 kts | 199° |
| 2026-04-26 11:12 | 23.72879 | 55.44831 | 33885 ft | 483 kts | 200° |
| 2026-04-26 11:12 | 23.66406 | 55.42902 | 33881 ft | 482 kts | 199° |
| 2026-04-26 11:13 | 23.59928 | 55.40974 | 33883 ft | 482 kts | 199° |
| 2026-04-26 11:13 | 23.53344 | 55.39387 | 33874 ft | 490 kts | 188° |
| 2026-04-26 11:14 | 23.46519 | 55.39787 | 33885 ft | 502 kts | 171° |
| 2026-04-26 11:14 | 23.39744 | 55.41842 | 33882 ft | 507 kts | 167° |
| 2026-04-26 11:15 | 23.32968 | 55.44058 | 33875 ft | 510 kts | 167° |
| 2026-04-26 11:15 | 23.26153 | 55.46248 | 33867 ft | 511 kts | 167° |
| 2026-04-26 11:16 | 23.19318 | 55.48408 | 33868 ft | 511 kts | 167° |
| 2026-04-26 11:16 | 23.12488 | 55.50560 | 33865 ft | 511 kts | 167° |
| 2026-04-26 11:17 | 23.05659 | 55.52713 | 33862 ft | 510 kts | 167° |
| 2026-04-26 11:17 | 22.98833 | 55.54837 | 33855 ft | 510 kts | 167° |
| 2026-04-26 11:18 | 22.92036 | 55.56903 | 33858 ft | 509 kts | 167° |
| 2026-04-26 11:18 | 22.85206 | 55.58980 | 33854 ft | 510 kts | 167° |
| 2026-04-26 11:19 | 22.78383 | 55.61060 | 33856 ft | 510 kts | 167° |
| 2026-04-26 11:19 | 22.71543 | 55.63146 | 33849 ft | 510 kts | 167° |
| 2026-04-26 11:20 | 22.65856 | 55.64878 | 33848 ft | 511 kts | 167° |
| 2026-04-26 11:20 | 22.57860 | 55.67316 | 33843 ft | 511 kts | 167° |
| 2026-04-26 11:21 | 22.51005 | 55.69419 | 33842 ft | 512 kts | 167° |
| 2026-04-26 11:21 | 22.44145 | 55.71522 | 33839 ft | 513 kts | 167° |
| 2026-04-26 11:22 | 22.37272 | 55.73625 | 33836 ft | 513 kts | 166° |
| 2026-04-26 11:22 | 22.30440 | 55.75713 | 33831 ft | 514 kts | 166° |
| 2026-04-26 11:23 | 22.23496 | 55.77440 | 33829 ft | 511 kts | 175° |
| 2026-04-26 11:23 | 22.16423 | 55.78137 | 33837 ft | 510 kts | 178° |
| 2026-04-26 11:24 | 22.09326 | 55.78781 | 33828 ft | 511 kts | 178° |
| 2026-04-26 11:24 | 22.02281 | 55.79471 | 33832 ft | 512 kts | 177° |
| 2026-04-26 11:25 | 21.95171 | 55.80189 | 33828 ft | 513 kts | 177° |
| 2026-04-26 11:25 | 21.88053 | 55.80909 | 33828 ft | 513 kts | 177° |
| 2026-04-26 11:26 | 21.80939 | 55.81623 | 33830 ft | 514 kts | 177° |
| 2026-04-26 11:26 | 21.73813 | 55.82338 | 33826 ft | 514 kts | 177° |
| 2026-04-26 11:27 | 21.66684 | 55.83048 | 33830 ft | 515 kts | 177° |
| 2026-04-26 11:27 | 21.59546 | 55.83745 | 33829 ft | 515 kts | 177° |
| 2026-04-26 11:28 | 21.52443 | 55.84437 | 33830 ft | 516 kts | 177° |
| 2026-04-26 11:28 | 21.45288 | 55.85135 | 33829 ft | 516 kts | 177° |
| 2026-04-26 11:29 | 21.38117 | 55.85835 | 33834 ft | 517 kts | 177° |
| 2026-04-26 11:29 | 21.30944 | 55.86535 | 33828 ft | 518 kts | 177° |
| 2026-04-26 11:30 | 21.24973 | 55.87116 | 33830 ft | 518 kts | 177° |
| 2026-04-26 11:30 | 21.16569 | 55.87924 | 33826 ft | 519 kts | 177° |
| 2026-04-26 11:31 | 21.09358 | 55.88615 | 33800 ft | 525 kts | 177° |
| 2026-04-26 11:31 | 21.01990 | 55.89321 | 33836 ft | 538 kts | 177° |
| 2026-04-26 11:32 | 20.94532 | 55.90038 | 33826 ft | 544 kts | 177° |
| 2026-04-26 11:32 | 20.86992 | 55.90762 | 33820 ft | 544 kts | 177° |
| 2026-04-26 11:33 | 20.79465 | 55.91495 | 33818 ft | 542 kts | 176° |
| 2026-04-26 11:33 | 20.71973 | 55.92235 | 33816 ft | 540 kts | 176° |
| 2026-04-26 11:34 | 20.64504 | 55.92970 | 33819 ft | 538 kts | 176° |
| 2026-04-26 11:34 | 20.57058 | 55.93700 | 33823 ft | 537 kts | 176° |
| 2026-04-26 11:35 | 20.49627 | 55.94427 | 33828 ft | 536 kts | 176° |
| 2026-04-26 11:35 | 20.43442 | 55.95032 | 33829 ft | 537 kts | 176° |
| 2026-04-26 11:36 | 20.34735 | 55.95884 | 33835 ft | 538 kts | 176° |
| 2026-04-26 11:36 | 20.27277 | 55.96607 | 33833 ft | 539 kts | 176° |
| 2026-04-26 11:37 | 20.19799 | 55.97316 | 33838 ft | 540 kts | 176° |
| 2026-04-26 11:37 | 20.12355 | 55.98023 | 33835 ft | 540 kts | 176° |
| 2026-04-26 11:38 | 20.04861 | 55.98557 | 33834 ft | 539 kts | 180° |
| 2026-04-26 11:38 | 19.97351 | 55.98718 | 33840 ft | 539 kts | 181° |
| 2026-04-26 11:39 | 19.89840 | 55.98855 | 33840 ft | 540 kts | 180° |
| 2026-04-26 11:39 | 19.82320 | 55.99026 | 33838 ft | 540 kts | 180° |
| 2026-04-26 11:40 | 19.74852 | 55.99212 | 33836 ft | 540 kts | 180° |
| 2026-04-26 11:40 | 19.67338 | 55.99396 | 33837 ft | 540 kts | 180° |
| 2026-04-26 11:42 | 19.40063 | 55.93568 | 33841 ft | 525 kts | 214° |
| 2026-04-26 11:43 | 19.33757 | 55.89604 | 33842 ft | 527 kts | 214° |
| 2026-04-26 11:43 | 19.27388 | 55.85696 | 33840 ft | 529 kts | 213° |
| 2026-04-26 11:44 | 19.20981 | 55.81822 | 33839 ft | 531 kts | 213° |
| 2026-04-26 11:44 | 19.14605 | 55.77969 | 33841 ft | 531 kts | 213° |
| 2026-04-26 11:45 | 19.08185 | 55.74085 | 33843 ft | 531 kts | 213° |
| 2026-04-26 11:45 | 19.01762 | 55.70208 | 33844 ft | 531 kts | 213° |
| 2026-04-26 11:46 | 18.95350 | 55.66353 | 33845 ft | 530 kts | 213° |
| 2026-04-26 11:46 | 18.88935 | 55.62500 | 33842 ft | 530 kts | 213° |
| 2026-04-26 11:47 | 18.82522 | 55.58649 | 33843 ft | 530 kts | 213° |
| 2026-04-26 11:47 | 18.76121 | 55.54807 | 33843 ft | 529 kts | 213° |
| 2026-04-26 11:48 | 18.69739 | 55.50979 | 33844 ft | 529 kts | 213° |
| 2026-04-26 11:48 | 18.63327 | 55.47138 | 33844 ft | 530 kts | 213° |
| 2026-04-26 11:49 | 18.56914 | 55.43299 | 33847 ft | 530 kts | 213° |
| 2026-04-26 11:49 | 18.50495 | 55.39460 | 33863 ft | 530 kts | 213° |
| 2026-04-26 11:50 | 18.44071 | 55.35620 | 33843 ft | 531 kts | 213° |
| 2026-04-26 11:50 | 18.37637 | 55.31778 | 33858 ft | 531 kts | 213° |
| 2026-04-26 11:51 | 18.31203 | 55.27940 | 33848 ft | 531 kts | 213° |
| 2026-04-26 11:51 | 18.24810 | 55.24126 | 33849 ft | 531 kts | 213° |
| 2026-04-26 11:52 | 18.18375 | 55.20289 | 33849 ft | 531 kts | 213° |
| 2026-04-26 11:52 | 18.11841 | 55.16632 | 33853 ft | 534 kts | 207° |
| 2026-04-26 11:53 | 18.04987 | 55.13572 | 33855 ft | 535 kts | 205° |
| 2026-04-26 11:54 | 17.94733 | 55.09063 | 33855 ft | 535 kts | 206° |
| 2026-04-26 11:54 | 17.87890 | 55.06003 | 33859 ft | 535 kts | 206° |
| 2026-04-26 11:55 | 17.81037 | 55.02927 | 33869 ft | 535 kts | 206° |
| 2026-04-26 11:55 | 17.74187 | 54.99857 | 33878 ft | 535 kts | 206° |
| 2026-04-26 11:56 | 17.67335 | 54.96792 | 33885 ft | 535 kts | 205° |
| 2026-04-26 11:56 | 17.60481 | 54.93729 | 33890 ft | 535 kts | 205° |
| 2026-04-26 11:57 | 17.53621 | 54.90667 | 33884 ft | 536 kts | 205° |
| 2026-04-26 11:57 | 17.46768 | 54.87609 | 33906 ft | 535 kts | 205° |
| 2026-04-26 11:58 | 17.39912 | 54.84552 | 33899 ft | 536 kts | 205° |
| 2026-04-26 11:58 | 17.33043 | 54.81491 | 33914 ft | 536 kts | 205° |
| 2026-04-26 11:59 | 17.26252 | 54.78296 | 33916 ft | 534 kts | 211° |
| 2026-04-26 11:59 | 17.19973 | 54.74194 | 33895 ft | 532 kts | 216° |
| 2026-04-26 12:00 | 17.13781 | 54.69964 | 33900 ft | 532 kts | 216° |
| 2026-04-26 12:00 | 17.07552 | 54.65780 | 33900 ft | 532 kts | 216° |
| 2026-04-26 12:01 | 17.01352 | 54.61644 | 33907 ft | 532 kts | 216° |
| 2026-04-26 12:01 | 16.95113 | 54.57481 | 33906 ft | 532 kts | 216° |
| 2026-04-26 12:02 | 16.88864 | 54.53311 | 33881 ft | 532 kts | 216° |
| 2026-04-26 12:02 | 16.82623 | 54.49149 | 33899 ft | 532 kts | 216° |
| 2026-04-26 12:03 | 16.76376 | 54.44982 | 33889 ft | 533 kts | 216° |
| 2026-04-26 12:03 | 16.70133 | 54.40821 | 33885 ft | 533 kts | 216° |
| 2026-04-26 12:04 | 16.63918 | 54.36681 | 33874 ft | 533 kts | 216° |
| 2026-04-26 12:04 | 16.57665 | 54.32519 | 33882 ft | 533 kts | 216° |
| 2026-04-26 12:05 | 16.51406 | 54.28357 | 33887 ft | 534 kts | 216° |
| 2026-04-26 12:05 | 16.45147 | 54.24198 | 33874 ft | 534 kts | 216° |
| 2026-04-26 12:06 | 16.38881 | 54.20038 | 33893 ft | 534 kts | 216° |
| 2026-04-26 12:06 | 16.32614 | 54.15880 | 33886 ft | 534 kts | 216° |
| 2026-04-26 12:07 | 16.26332 | 54.11715 | 33889 ft | 534 kts | 216° |
| 2026-04-26 12:07 | 16.20063 | 54.07562 | 33878 ft | 534 kts | 216° |
| 2026-04-26 12:08 | 16.13827 | 54.03433 | 33893 ft | 534 kts | 215° |
| 2026-04-26 12:08 | 16.07552 | 53.99283 | 33899 ft | 534 kts | 215° |
| 2026-04-26 12:09 | 16.01278 | 53.95136 | 33884 ft | 534 kts | 215° |
| 2026-04-26 12:09 | 15.95001 | 53.90989 | 33896 ft | 534 kts | 215° |
| 2026-04-26 12:10 | 15.88720 | 53.86843 | 33899 ft | 534 kts | 215° |
| 2026-04-26 12:10 | 15.82456 | 53.82684 | 33897 ft | 534 kts | 216° |
| 2026-04-26 12:11 | 15.76199 | 53.78497 | 33900 ft | 534 kts | 216° |
| 2026-04-26 12:11 | 15.69946 | 53.74317 | 33893 ft | 535 kts | 216° |
| 2026-04-26 12:12 | 15.63685 | 53.70141 | 33895 ft | 535 kts | 216° |
| 2026-04-26 12:12 | 15.57469 | 53.66000 | 33900 ft | 535 kts | 216° |
| 2026-04-26 12:13 | 15.51199 | 53.61825 | 33894 ft | 535 kts | 216° |
| 2026-04-26 12:13 | 15.44929 | 53.57652 | 33895 ft | 535 kts | 216° |
| 2026-04-26 12:14 | 15.38636 | 53.53531 | 33898 ft | 535 kts | 214° |
| 2026-04-26 12:14 | 15.32297 | 53.49491 | 33897 ft | 535 kts | 214° |
| 2026-04-26 12:15 | 15.25943 | 53.45444 | 33899 ft | 536 kts | 214° |
| 2026-04-26 12:15 | 15.19640 | 53.41413 | 33900 ft | 536 kts | 214° |
| 2026-04-26 12:16 | 15.13287 | 53.37345 | 33900 ft | 536 kts | 214° |
| 2026-04-26 12:16 | 15.06938 | 53.33283 | 33894 ft | 536 kts | 214° |
| 2026-04-26 12:17 | 15.00590 | 53.29225 | 33900 ft | 536 kts | 214° |
| 2026-04-26 12:17 | 14.94278 | 53.25194 | 33894 ft | 536 kts | 214° |
| 2026-04-26 12:18 | 14.87931 | 53.21143 | 33892 ft | 536 kts | 214° |
| 2026-04-26 12:18 | 14.81581 | 53.17093 | 33899 ft | 536 kts | 214° |
| 2026-04-26 12:19 | 14.75229 | 53.13044 | 33894 ft | 536 kts | 214° |
| 2026-04-26 12:19 | 14.68877 | 53.08997 | 33897 ft | 536 kts | 214° |
| 2026-04-26 12:20 | 14.62521 | 53.04943 | 33901 ft | 536 kts | 214° |
| 2026-04-26 12:20 | 14.56189 | 53.00874 | 33898 ft | 536 kts | 214° |
| 2026-04-26 12:21 | 14.49845 | 52.96792 | 33895 ft | 536 kts | 214° |
| 2026-04-26 12:21 | 14.43502 | 52.92717 | 33896 ft | 537 kts | 214° |
| 2026-04-26 12:22 | 14.37163 | 52.88651 | 33899 ft | 537 kts | 214° |
| 2026-04-26 12:22 | 14.30864 | 52.84614 | 33891 ft | 537 kts | 214° |
| 2026-04-26 12:23 | 14.24514 | 52.80548 | 33897 ft | 537 kts | 214° |
| 2026-04-26 12:23 | 14.18171 | 52.76487 | 33896 ft | 537 kts | 214° |
| 2026-04-26 12:24 | 14.11819 | 52.72424 | 33899 ft | 537 kts | 214° |
| 2026-04-26 12:24 | 14.05462 | 52.68360 | 33896 ft | 537 kts | 214° |
| 2026-04-26 12:25 | 13.95978 | 52.62302 | 33900 ft | 537 kts | 214° |
| 2026-04-26 12:25 | 13.89620 | 52.58244 | 33897 ft | 537 kts | 214° |
| 2026-04-26 12:26 | 13.83261 | 52.54189 | 33898 ft | 537 kts | 214° |
| 2026-04-26 12:26 | 13.76909 | 52.50140 | 33898 ft | 538 kts | 214° |
| 2026-04-26 12:27 | 13.70541 | 52.46084 | 33897 ft | 538 kts | 214° |
| 2026-04-26 12:27 | 13.64170 | 52.42028 | 33900 ft | 538 kts | 214° |
| 2026-04-26 12:28 | 13.58881 | 52.38663 | 33897 ft | 538 kts | 214° |
| 2026-04-26 12:28 | 13.52522 | 52.34619 | 33902 ft | 538 kts | 214° |
| 2026-04-26 12:29 | 13.46156 | 52.30573 | 33896 ft | 538 kts | 214° |
| 2026-04-26 12:30 | 13.36609 | 52.24513 | 33894 ft | 538 kts | 214° |
| 2026-04-26 12:30 | 13.30238 | 52.20486 | 33889 ft | 538 kts | 214° |
| 2026-04-26 12:31 | 13.20674 | 52.14450 | 33894 ft | 538 kts | 214° |
| 2026-04-26 12:31 | 13.14292 | 52.10423 | 33895 ft | 538 kts | 214° |
| 2026-04-26 12:32 | 13.07912 | 52.06397 | 33892 ft | 538 kts | 214° |
| 2026-04-26 12:33 | 12.98392 | 52.00395 | 33897 ft | 538 kts | 214° |
| 2026-04-26 12:33 | 12.92015 | 51.96379 | 33890 ft | 538 kts | 214° |
| 2026-04-26 12:34 | 12.85629 | 51.92358 | 33891 ft | 538 kts | 214° |
| 2026-04-26 12:34 | 12.79231 | 51.88333 | 33886 ft | 538 kts | 214° |
| 2026-04-26 12:35 | 12.72837 | 51.84312 | 33894 ft | 539 kts | 214° |
| 2026-04-26 12:35 | 12.66485 | 51.80321 | 33887 ft | 539 kts | 213° |
| 2026-04-26 12:36 | 12.60094 | 51.76308 | 33884 ft | 539 kts | 213° |
| 2026-04-26 12:36 | 12.53697 | 51.72293 | 33884 ft | 539 kts | 213° |
| 2026-04-26 12:37 | 12.47300 | 51.68279 | 33884 ft | 539 kts | 213° |
| 2026-04-26 12:37 | 12.40905 | 51.64270 | 33888 ft | 539 kts | 213° |
| 2026-04-26 12:38 | 12.34509 | 51.60263 | 33885 ft | 539 kts | 213° |
| 2026-04-26 12:38 | 12.28114 | 51.56258 | 33880 ft | 539 kts | 213° |
| 2026-04-26 12:39 | 12.21710 | 51.52250 | 33881 ft | 539 kts | 213° |
| 2026-04-26 12:39 | 12.15308 | 51.48245 | 33882 ft | 539 kts | 213° |
| 2026-04-26 12:40 | 12.08953 | 51.44271 | 33881 ft | 539 kts | 213° |
| 2026-04-26 12:40 | 12.02549 | 51.40270 | 33880 ft | 539 kts | 213° |
| 2026-04-26 12:41 | 11.96143 | 51.36269 | 33883 ft | 539 kts | 213° |
| 2026-04-26 12:41 | 11.89740 | 51.32269 | 33877 ft | 539 kts | 213° |
| 2026-04-26 12:42 | 11.83341 | 51.28274 | 33885 ft | 539 kts | 213° |
| 2026-04-26 12:42 | 11.76976 | 51.24301 | 33885 ft | 539 kts | 213° |
| 2026-04-26 12:43 | 11.70578 | 51.20310 | 33895 ft | 539 kts | 213° |
| 2026-04-26 12:43 | 11.64171 | 51.16315 | 33889 ft | 539 kts | 213° |
| 2026-04-26 12:44 | 11.57770 | 51.12327 | 33897 ft | 539 kts | 213° |
| 2026-04-26 12:44 | 11.51372 | 51.08342 | 33891 ft | 538 kts | 213° |
| 2026-04-26 12:45 | 11.44983 | 51.04364 | 33903 ft | 538 kts | 213° |
| 2026-04-26 12:45 | 11.38597 | 51.00391 | 33895 ft | 537 kts | 213° |
| 2026-04-26 12:46 | 11.32219 | 50.96421 | 33903 ft | 537 kts | 213° |
| 2026-04-26 12:46 | 11.25844 | 50.92449 | 33903 ft | 537 kts | 213° |
| 2026-04-26 12:47 | 11.19454 | 50.88470 | 33887 ft | 538 kts | 213° |
| 2026-04-26 12:47 | 11.13109 | 50.84522 | 33897 ft | 538 kts | 213° |
| 2026-04-26 12:48 | 11.06709 | 50.80541 | 33888 ft | 539 kts | 213° |
| 2026-04-26 12:48 | 11.00313 | 50.76565 | 33888 ft | 539 kts | 213° |
| 2026-04-26 12:49 | 10.93908 | 50.72586 | 33875 ft | 539 kts | 213° |
| 2026-04-26 12:49 | 10.87493 | 50.68603 | 33878 ft | 539 kts | 213° |
| 2026-04-26 12:50 | 10.81082 | 50.64623 | 33882 ft | 539 kts | 213° |
| 2026-04-26 12:50 | 10.74677 | 50.60650 | 33868 ft | 539 kts | 213° |
| 2026-04-26 12:51 | 10.68270 | 50.56677 | 33867 ft | 539 kts | 213° |
| 2026-04-26 12:51 | 10.61911 | 50.52737 | 33867 ft | 538 kts | 213° |
| 2026-04-26 12:52 | 10.55519 | 50.48777 | 33869 ft | 538 kts | 213° |
| 2026-04-26 12:52 | 10.49125 | 50.44819 | 33867 ft | 538 kts | 213° |
| 2026-04-26 12:53 | 10.42736 | 50.40865 | 33866 ft | 537 kts | 213° |
| 2026-04-26 12:53 | 10.36351 | 50.36916 | 33863 ft | 537 kts | 213° |
| 2026-04-26 12:54 | 10.29962 | 50.32966 | 33868 ft | 537 kts | 213° |
| 2026-04-26 12:54 | 10.23565 | 50.29013 | 33864 ft | 537 kts | 213° |
| 2026-04-26 12:55 | 10.17214 | 50.25091 | 33868 ft | 538 kts | 213° |
| 2026-04-26 12:55 | 10.10822 | 50.21145 | 33857 ft | 538 kts | 213° |
| 2026-04-26 12:56 | 10.04425 | 50.17197 | 33869 ft | 538 kts | 213° |
| 2026-04-26 12:56 | 9.98020 | 50.13247 | 33867 ft | 538 kts | 213° |
| 2026-04-26 12:57 | 9.91614 | 50.09298 | 33868 ft | 538 kts | 213° |
| 2026-04-26 12:57 | 9.85207 | 50.05350 | 33865 ft | 539 kts | 213° |
| 2026-04-26 12:58 | 9.75595 | 49.99431 | 33870 ft | 539 kts | 213° |
| 2026-04-26 12:58 | 9.69234 | 49.95516 | 33869 ft | 538 kts | 213° |
| 2026-04-26 12:59 | 9.62827 | 49.91574 | 33861 ft | 538 kts | 213° |
| 2026-04-26 12:59 | 9.56420 | 49.87634 | 33863 ft | 538 kts | 213° |
| 2026-04-26 13:00 | 9.50008 | 49.83693 | 33862 ft | 538 kts | 213° |
| 2026-04-26 13:00 | 9.43606 | 49.79759 | 33859 ft | 538 kts | 213° |
| 2026-04-26 13:01 | 9.37195 | 49.75822 | 33859 ft | 538 kts | 213° |
| 2026-04-26 13:01 | 9.30785 | 49.71886 | 33859 ft | 538 kts | 213° |
| 2026-04-26 13:02 | 9.24385 | 49.67958 | 33859 ft | 538 kts | 212° |
| 2026-04-26 13:02 | 9.17973 | 49.64029 | 33858 ft | 538 kts | 212° |
| 2026-04-26 13:03 | 9.11616 | 49.60143 | 33858 ft | 537 kts | 212° |
| 2026-04-26 13:03 | 9.05216 | 49.56231 | 33859 ft | 537 kts | 212° |
| 2026-04-26 13:04 | 8.98823 | 49.52322 | 33858 ft | 536 kts | 212° |
| 2026-04-26 13:04 | 8.92436 | 49.48418 | 33858 ft | 536 kts | 212° |
| 2026-04-26 13:05 | 8.86051 | 49.44517 | 33855 ft | 535 kts | 212° |
| 2026-04-26 13:05 | 8.79678 | 49.40625 | 33852 ft | 535 kts | 212° |
| 2026-04-26 13:06 | 8.73353 | 49.36764 | 33854 ft | 534 kts | 212° |
| 2026-04-26 13:06 | 8.66993 | 49.32881 | 33851 ft | 534 kts | 212° |
| 2026-04-26 13:07 | 8.60633 | 49.29002 | 33847 ft | 533 kts | 212° |
| 2026-04-26 13:07 | 8.54282 | 49.25133 | 33848 ft | 533 kts | 212° |
| 2026-04-26 13:08 | 8.47934 | 49.21265 | 33843 ft | 532 kts | 212° |
| 2026-04-26 13:08 | 8.41584 | 49.17396 | 33844 ft | 532 kts | 212° |
| 2026-04-26 13:09 | 8.35245 | 49.13535 | 33843 ft | 532 kts | 212° |
| 2026-04-26 13:09 | 8.28906 | 49.09675 | 33845 ft | 531 kts | 212° |
| 2026-04-26 13:10 | 8.22614 | 49.05846 | 33846 ft | 531 kts | 212° |
| 2026-04-26 13:10 | 8.16282 | 49.01994 | 33852 ft | 531 kts | 212° |
| 2026-04-26 13:11 | 8.09956 | 48.98147 | 33849 ft | 531 kts | 212° |
| 2026-04-26 13:11 | 8.03632 | 48.94302 | 33855 ft | 530 kts | 212° |
| 2026-04-26 13:12 | 7.97310 | 48.90461 | 33859 ft | 529 kts | 212° |
| 2026-04-26 13:12 | 7.91035 | 48.86649 | 33859 ft | 529 kts | 212° |
| 2026-04-26 13:13 | 7.84727 | 48.82818 | 33860 ft | 528 kts | 212° |
| 2026-04-26 13:13 | 7.78427 | 48.78994 | 33858 ft | 528 kts | 212° |
| 2026-04-26 13:14 | 7.73193 | 48.75818 | 33858 ft | 528 kts | 212° |
| 2026-04-26 13:14 | 7.66906 | 48.72004 | 33857 ft | 527 kts | 212° |
| 2026-04-26 13:15 | 7.60626 | 48.68195 | 33858 ft | 527 kts | 212° |
| 2026-04-26 13:15 | 7.54348 | 48.64388 | 33857 ft | 526 kts | 212° |
| 2026-04-26 13:16 | 7.48065 | 48.60580 | 33859 ft | 526 kts | 212° |
| 2026-04-26 13:16 | 7.41798 | 48.56783 | 33857 ft | 525 kts | 212° |
| 2026-04-26 13:17 | 7.32408 | 48.51090 | 33854 ft | 524 kts | 212° |
| 2026-04-26 13:18 | 7.23125 | 48.45363 | 33855 ft | 523 kts | 212° |
| 2026-04-26 13:19 | 7.13826 | 48.39613 | 33864 ft | 522 kts | 212° |
| 2026-04-26 13:19 | 7.07637 | 48.35796 | 33846 ft | 521 kts | 212° |
| 2026-04-26 13:20 | 7.01456 | 48.31988 | 33861 ft | 521 kts | 212° |
| 2026-04-26 13:20 | 6.95282 | 48.28185 | 33867 ft | 520 kts | 212° |
| 2026-04-26 13:21 | 6.89112 | 48.24385 | 33863 ft | 519 kts | 212° |
| 2026-04-26 13:21 | 6.82954 | 48.20593 | 33847 ft | 519 kts | 212° |
| 2026-04-26 13:22 | 6.76799 | 48.16805 | 33866 ft | 518 kts | 212° |
| 2026-04-26 13:22 | 6.70689 | 48.13045 | 33865 ft | 518 kts | 212° |
| 2026-04-26 13:23 | 6.64535 | 48.09259 | 33863 ft | 518 kts | 212° |
| 2026-04-26 13:23 | 6.58390 | 48.05480 | 33864 ft | 517 kts | 212° |
| 2026-04-26 13:24 | 6.52245 | 48.01702 | 33858 ft | 517 kts | 212° |
| 2026-04-26 13:24 | 6.46100 | 47.97925 | 33861 ft | 517 kts | 212° |
| 2026-04-26 13:25 | 6.39954 | 47.94148 | 33863 ft | 518 kts | 212° |
| 2026-04-26 13:25 | 6.33829 | 47.90386 | 33866 ft | 517 kts | 212° |
| 2026-04-26 13:26 | 6.27721 | 47.86635 | 33868 ft | 518 kts | 212° |
| 2026-04-26 13:26 | 6.21571 | 47.82859 | 33863 ft | 518 kts | 212° |
| 2026-04-26 13:27 | 6.15419 | 47.79084 | 33867 ft | 518 kts | 212° |
| 2026-04-26 13:27 | 6.09269 | 47.75309 | 33865 ft | 518 kts | 212° |
| 2026-04-26 13:28 | 6.03119 | 47.71537 | 33865 ft | 518 kts | 212° |
| 2026-04-26 13:28 | 5.96961 | 47.67760 | 33863 ft | 518 kts | 212° |
| 2026-04-26 13:29 | 5.90801 | 47.63983 | 33863 ft | 519 kts | 212° |
| 2026-04-26 13:29 | 5.84639 | 47.60206 | 33864 ft | 519 kts | 212° |
| 2026-04-26 13:30 | 5.78474 | 47.56428 | 33862 ft | 519 kts | 211° |
| 2026-04-26 13:30 | 5.72345 | 47.52672 | 33861 ft | 519 kts | 211° |
| 2026-04-26 13:31 | 5.66175 | 47.48892 | 33864 ft | 519 kts | 211° |
| 2026-04-26 13:31 | 5.59980 | 47.45129 | 33863 ft | 519 kts | 211° |
| 2026-04-26 13:32 | 5.53785 | 47.41397 | 33865 ft | 519 kts | 211° |
| 2026-04-26 13:32 | 5.47590 | 47.37665 | 33863 ft | 519 kts | 211° |
| 2026-04-26 13:33 | 5.41401 | 47.33930 | 33863 ft | 519 kts | 211° |
| 2026-04-26 13:33 | 5.35207 | 47.30190 | 33864 ft | 519 kts | 211° |
| 2026-04-26 13:34 | 5.29018 | 47.26455 | 33859 ft | 519 kts | 211° |
| 2026-04-26 13:34 | 5.22841 | 47.22727 | 33864 ft | 518 kts | 211° |
| 2026-04-26 13:35 | 5.16694 | 47.19019 | 33862 ft | 518 kts | 211° |
| 2026-04-26 13:35 | 5.10510 | 47.15289 | 33865 ft | 518 kts | 211° |
| 2026-04-26 13:36 | 5.04324 | 47.11559 | 33865 ft | 518 kts | 211° |
| 2026-04-26 13:36 | 4.98147 | 47.07836 | 33862 ft | 518 kts | 211° |
| 2026-04-26 13:37 | 4.91961 | 47.04107 | 33862 ft | 518 kts | 211° |
| 2026-04-26 13:37 | 4.85782 | 47.00384 | 33863 ft | 518 kts | 211° |
| 2026-04-26 13:38 | 4.79646 | 46.96687 | 33860 ft | 518 kts | 211° |
| 2026-04-26 13:38 | 4.73461 | 46.92962 | 33860 ft | 519 kts | 211° |
| 2026-04-26 13:39 | 4.67285 | 46.89243 | 33856 ft | 519 kts | 211° |
| 2026-04-26 13:39 | 4.61079 | 46.85506 | 33856 ft | 519 kts | 211° |
| 2026-04-26 13:40 | 4.54879 | 46.81774 | 33859 ft | 519 kts | 211° |
| 2026-04-26 13:40 | 4.48679 | 46.78043 | 33856 ft | 519 kts | 211° |
| 2026-04-26 13:41 | 4.42516 | 46.74335 | 33856 ft | 520 kts | 211° |
| 2026-04-26 13:41 | 4.36317 | 46.70606 | 33856 ft | 520 kts | 211° |
| 2026-04-26 13:42 | 4.30112 | 46.66874 | 33856 ft | 520 kts | 212° |
| 2026-04-26 13:42 | 4.23904 | 46.63140 | 33855 ft | 520 kts | 212° |
| 2026-04-26 13:43 | 4.17695 | 46.59407 | 33854 ft | 520 kts | 212° |
| 2026-04-26 13:43 | 4.11488 | 46.55676 | 33856 ft | 520 kts | 212° |
| 2026-04-26 13:44 | 4.05319 | 46.51969 | 33854 ft | 520 kts | 212° |
| 2026-04-26 13:44 | 3.99110 | 46.48237 | 33852 ft | 520 kts | 212° |
| 2026-04-26 13:45 | 3.92899 | 46.44506 | 33853 ft | 520 kts | 212° |
| 2026-04-26 13:45 | 3.86692 | 46.40777 | 33855 ft | 520 kts | 212° |
| 2026-04-26 13:46 | 3.80485 | 46.37049 | 33857 ft | 520 kts | 212° |
| 2026-04-26 13:46 | 3.74267 | 46.33316 | 33861 ft | 520 kts | 212° |
| 2026-04-26 13:47 | 3.68049 | 46.29583 | 33864 ft | 521 kts | 212° |
| 2026-04-26 13:47 | 3.61831 | 46.25850 | 33867 ft | 521 kts | 212° |
| 2026-04-26 13:48 | 3.55653 | 46.22142 | 33865 ft | 521 kts | 212° |
| 2026-04-26 13:48 | 3.49434 | 46.18410 | 33868 ft | 521 kts | 212° |
| 2026-04-26 13:49 | 3.43211 | 46.14676 | 33871 ft | 520 kts | 212° |
| 2026-04-26 13:49 | 3.37008 | 46.10955 | 33868 ft | 520 kts | 212° |
| 2026-04-26 13:50 | 3.30803 | 46.07233 | 33869 ft | 519 kts | 212° |
| 2026-04-26 13:50 | 3.24605 | 46.03516 | 33870 ft | 519 kts | 212° |
| 2026-04-26 13:51 | 3.18408 | 45.99800 | 33872 ft | 519 kts | 211° |
| 2026-04-26 13:51 | 3.12218 | 45.96089 | 33872 ft | 519 kts | 211° |
| 2026-04-26 13:52 | 3.06063 | 45.92399 | 33870 ft | 519 kts | 211° |
| 2026-04-26 13:52 | 2.99867 | 45.88685 | 33871 ft | 519 kts | 211° |
| 2026-04-26 13:53 | 2.93672 | 45.84972 | 33871 ft | 519 kts | 211° |
| 2026-04-26 13:53 | 2.87475 | 45.81259 | 33877 ft | 519 kts | 211° |
| 2026-04-26 13:54 | 2.81281 | 45.77547 | 33875 ft | 518 kts | 211° |
| 2026-04-26 13:54 | 2.75092 | 45.73840 | 33874 ft | 518 kts | 211° |
| 2026-04-26 13:55 | 2.66878 | 45.68920 | 33877 ft | 516 kts | 211° |
| 2026-04-26 13:56 | 2.56636 | 45.62786 | 33878 ft | 515 kts | 211° |
| 2026-04-26 13:56 | 2.50490 | 45.59106 | 33879 ft | 514 kts | 211° |
| 2026-04-26 13:57 | 2.44352 | 45.55430 | 33878 ft | 514 kts | 211° |
| 2026-04-26 13:57 | 2.38219 | 45.51758 | 33879 ft | 513 kts | 210° |
| 2026-04-26 13:58 | 2.32086 | 45.48087 | 33880 ft | 513 kts | 210° |
| 2026-04-26 13:58 | 2.25961 | 45.44420 | 33875 ft | 513 kts | 210° |
| 2026-04-26 13:59 | 2.19837 | 45.40755 | 33869 ft | 512 kts | 210° |
| 2026-04-26 13:59 | 2.13721 | 45.37095 | 33865 ft | 512 kts | 210° |
| 2026-04-26 14:00 | 2.01516 | 45.29790 | 34116 ft | 515 kts | 210° |
| 2026-04-26 14:01 | 1.95487 | 45.25879 | 34577 ft | 516 kts | 213° |
| 2026-04-26 14:01 | 1.92520 | 45.23865 | 34855 ft | 515 kts | 214° |
| 2026-04-26 14:01 | 1.89558 | 45.21842 | 35162 ft | 514 kts | 214° |
| 2026-04-26 14:01 | 1.87600 | 45.20506 | 35357 ft | 513 kts | 214° |
| 2026-04-26 14:02 | 1.84649 | 45.18497 | 35616 ft | 513 kts | 213° |
| 2026-04-26 14:02 | 1.81694 | 45.16494 | 35798 ft | 515 kts | 213° |
| 2026-04-26 14:02 | 1.78720 | 45.14485 | 35829 ft | 517 kts | 213° |
| 2026-04-26 14:03 | 1.72763 | 45.10470 | 35871 ft | 513 kts | 213° |
| 2026-04-26 14:03 | 1.66878 | 45.06507 | 35876 ft | 508 kts | 213° |
| 2026-04-26 14:04 | 1.61026 | 45.02564 | 35884 ft | 506 kts | 213° |
| 2026-04-26 14:04 | 1.55239 | 44.98665 | 35886 ft | 504 kts | 213° |
| 2026-04-26 14:05 | 1.49432 | 44.94753 | 35882 ft | 503 kts | 213° |
| 2026-04-26 14:05 | 1.43624 | 44.90839 | 35885 ft | 502 kts | 213° |
| 2026-04-26 14:06 | 1.37826 | 44.86933 | 35884 ft | 502 kts | 213° |
| 2026-04-26 14:06 | 1.32038 | 44.83034 | 35887 ft | 502 kts | 213° |
| 2026-04-26 14:07 | 1.26247 | 44.79133 | 35885 ft | 502 kts | 213° |
| 2026-04-26 14:07 | 1.20443 | 44.75224 | 35881 ft | 503 kts | 213° |
| 2026-04-26 14:08 | 1.14662 | 44.71331 | 35883 ft | 505 kts | 213° |
| 2026-04-26 14:08 | 1.08795 | 44.67379 | 35886 ft | 506 kts | 213° |
| 2026-04-26 14:09 | 1.02980 | 44.63462 | 35884 ft | 507 kts | 213° |
| 2026-04-26 14:09 | 0.97114 | 44.59512 | 35885 ft | 508 kts | 213° |
| 2026-04-26 14:10 | 0.91240 | 44.55556 | 35888 ft | 509 kts | 213° |
| 2026-04-26 14:10 | 0.85397 | 44.51621 | 35889 ft | 510 kts | 213° |
| 2026-04-26 14:11 | 0.76576 | 44.45681 | 35887 ft | 509 kts | 213° |
| 2026-04-26 14:11 | 0.70703 | 44.41727 | 35883 ft | 509 kts | 213° |
| 2026-04-26 14:12 | 0.64828 | 44.37771 | 35884 ft | 508 kts | 213° |
| 2026-04-26 14:12 | 0.58967 | 44.33824 | 35887 ft | 507 kts | 213° |
| 2026-04-26 14:13 | 0.50189 | 44.27914 | 35887 ft | 506 kts | 213° |
| 2026-04-26 14:14 | 0.44353 | 44.23984 | 35886 ft | 505 kts | 213° |
| 2026-04-26 14:14 | 0.38528 | 44.20061 | 35886 ft | 505 kts | 213° |
| 2026-04-26 14:15 | 0.32708 | 44.16142 | 35889 ft | 504 kts | 213° |
| 2026-04-26 14:15 | 0.26938 | 44.12247 | 35892 ft | 504 kts | 214° |
| 2026-04-26 14:16 | 0.21133 | 44.08318 | 35893 ft | 504 kts | 214° |
| 2026-04-26 14:16 | 0.15293 | 44.04364 | 35893 ft | 504 kts | 213° |
| 2026-04-26 14:17 | 0.09523 | 44.00458 | 35894 ft | 504 kts | 213° |
| 2026-04-26 14:17 | 0.03713 | 43.96527 | 35895 ft | 504 kts | 213° |
| 2026-04-26 14:18 | -0.02101 | 43.92592 | 35895 ft | 505 kts | 213° |
| 2026-04-26 14:18 | -0.07920 | 43.88655 | 35894 ft | 505 kts | 213° |
| 2026-04-26 14:19 | -0.13746 | 43.84712 | 35897 ft | 506 kts | 214° |
| 2026-04-26 14:19 | -0.19575 | 43.80768 | 35901 ft | 506 kts | 214° |
| 2026-04-26 14:20 | -0.25407 | 43.76821 | 35897 ft | 506 kts | 214° |
| 2026-04-26 14:20 | -0.31245 | 43.72871 | 35895 ft | 507 kts | 214° |
| 2026-04-26 14:21 | -0.37082 | 43.68921 | 35894 ft | 507 kts | 214° |
| 2026-04-26 14:21 | -0.42888 | 43.64992 | 35899 ft | 507 kts | 214° |
| 2026-04-26 14:22 | -0.48724 | 43.61042 | 35902 ft | 506 kts | 214° |
| 2026-04-26 14:22 | -0.54565 | 43.57090 | 35899 ft | 506 kts | 214° |
| 2026-04-26 14:23 | -0.60397 | 43.53143 | 35898 ft | 506 kts | 214° |
| 2026-04-26 14:23 | -0.66221 | 43.49201 | 35899 ft | 505 kts | 214° |
| 2026-04-26 14:24 | -0.72049 | 43.45257 | 35902 ft | 505 kts | 214° |
| 2026-04-26 14:24 | -0.77863 | 43.41321 | 35899 ft | 504 kts | 214° |
| 2026-04-26 14:25 | -0.83636 | 43.37414 | 35900 ft | 504 kts | 214° |
| 2026-04-26 14:25 | -0.89440 | 43.33486 | 35902 ft | 503 kts | 214° |
| 2026-04-26 14:26 | -0.95244 | 43.29557 | 35899 ft | 503 kts | 214° |
| 2026-04-26 14:26 | -1.01038 | 43.25635 | 35905 ft | 502 kts | 214° |
| 2026-04-26 14:27 | -1.06825 | 43.21717 | 35904 ft | 502 kts | 214° |
| 2026-04-26 14:27 | -1.12574 | 43.17825 | 35903 ft | 501 kts | 214° |
| 2026-04-26 14:28 | -1.18351 | 43.13914 | 35904 ft | 501 kts | 214° |
| 2026-04-26 14:28 | -1.24128 | 43.10002 | 35905 ft | 501 kts | 214° |
| 2026-04-26 14:29 | -1.29905 | 43.06091 | 35907 ft | 501 kts | 214° |
| 2026-04-26 14:29 | -1.35682 | 43.02179 | 35906 ft | 501 kts | 214° |
| 2026-04-26 14:30 | -1.41457 | 42.98268 | 35908 ft | 501 kts | 214° |
| 2026-04-26 14:30 | -1.47193 | 42.94383 | 35911 ft | 501 kts | 214° |
| 2026-04-26 14:31 | -1.52969 | 42.90472 | 35909 ft | 501 kts | 214° |
| 2026-04-26 14:31 | -1.58749 | 42.86557 | 35907 ft | 502 kts | 214° |
| 2026-04-26 14:32 | -1.64530 | 42.82641 | 35906 ft | 502 kts | 214° |
| 2026-04-26 14:32 | -1.70318 | 42.78720 | 35908 ft | 502 kts | 214° |
| 2026-04-26 14:33 | -1.76105 | 42.74799 | 35909 ft | 503 kts | 214° |
| 2026-04-26 14:33 | -1.81901 | 42.70872 | 35908 ft | 503 kts | 214° |
| 2026-04-26 14:34 | -1.87701 | 42.66941 | 35908 ft | 503 kts | 214° |
| 2026-04-26 14:34 | -1.93461 | 42.63037 | 35907 ft | 504 kts | 214° |
| 2026-04-26 14:35 | -1.99264 | 42.59104 | 35908 ft | 504 kts | 214° |
| 2026-04-26 14:35 | -2.05044 | 42.55140 | 35909 ft | 504 kts | 215° |
| 2026-04-26 14:36 | -2.10803 | 42.51132 | 35908 ft | 504 kts | 215° |
| 2026-04-26 14:36 | -2.16568 | 42.47127 | 35909 ft | 503 kts | 215° |
| 2026-04-26 14:37 | -2.22317 | 42.43141 | 35910 ft | 503 kts | 216° |
| 2026-04-26 14:37 | -2.27943 | 42.39061 | 35905 ft | 502 kts | 217° |
| 2026-04-26 14:38 | -2.33541 | 42.34889 | 35907 ft | 501 kts | 217° |
| 2026-04-26 14:38 | -2.39129 | 42.30735 | 35910 ft | 500 kts | 217° |
| 2026-04-26 14:39 | -2.44720 | 42.26603 | 35908 ft | 499 kts | 217° |
| 2026-04-26 14:39 | -2.50303 | 42.22487 | 35909 ft | 498 kts | 217° |
| 2026-04-26 14:40 | -2.55881 | 42.18375 | 35909 ft | 497 kts | 216° |
| 2026-04-26 14:40 | -2.61449 | 42.14269 | 35911 ft | 496 kts | 216° |
| 2026-04-26 14:41 | -2.67004 | 42.10171 | 35911 ft | 496 kts | 216° |
| 2026-04-26 14:41 | -2.72514 | 42.06105 | 35915 ft | 495 kts | 216° |
| 2026-04-26 14:42 | -2.78056 | 42.02015 | 35912 ft | 495 kts | 216° |
| 2026-04-26 14:42 | -2.82531 | 41.98713 | 35914 ft | 495 kts | 216° |
| 2026-04-26 14:43 | -2.88080 | 41.94617 | 35914 ft | 495 kts | 216° |
| 2026-04-26 14:43 | -2.93640 | 41.90513 | 35916 ft | 496 kts | 216° |
| 2026-04-26 14:44 | -2.99207 | 41.86403 | 35916 ft | 498 kts | 216° |
| 2026-04-26 14:44 | -3.04752 | 41.82309 | 35917 ft | 499 kts | 216° |
| 2026-04-26 14:45 | -3.10312 | 41.78202 | 35917 ft | 499 kts | 216° |
| 2026-04-26 14:45 | -3.15899 | 41.74061 | 35913 ft | 500 kts | 217° |
| 2026-04-26 14:46 | -3.21500 | 41.69916 | 35918 ft | 501 kts | 217° |
| 2026-04-26 14:46 | -3.27106 | 41.65776 | 35917 ft | 501 kts | 217° |
| 2026-04-26 14:47 | -3.32720 | 41.61632 | 35916 ft | 501 kts | 217° |
| 2026-04-26 14:47 | -3.38338 | 41.57489 | 35918 ft | 501 kts | 216° |
| 2026-04-26 14:48 | -3.43961 | 41.53347 | 35920 ft | 502 kts | 216° |
| 2026-04-26 14:48 | -3.48628 | 41.49897 | 35921 ft | 502 kts | 216° |
| 2026-04-26 14:49 | -3.54249 | 41.45737 | 35922 ft | 502 kts | 216° |
| 2026-04-26 14:49 | -3.59872 | 41.41578 | 35919 ft | 502 kts | 216° |
| 2026-04-26 14:50 | -3.65491 | 41.37422 | 35918 ft | 501 kts | 216° |
| 2026-04-26 14:50 | -3.71101 | 41.33273 | 35920 ft | 500 kts | 216° |
| 2026-04-26 14:51 | -3.76695 | 41.29134 | 35922 ft | 500 kts | 217° |
| 2026-04-26 14:51 | -3.82286 | 41.24997 | 35927 ft | 499 kts | 216° |
| 2026-04-26 14:52 | -3.87874 | 41.20862 | 35927 ft | 499 kts | 217° |
| 2026-04-26 14:52 | -3.93454 | 41.16729 | 35925 ft | 499 kts | 217° |
| 2026-04-26 14:53 | -3.99036 | 41.12608 | 35932 ft | 498 kts | 215° |
| 2026-04-26 14:53 | -4.04895 | 41.08895 | 35929 ft | 499 kts | 211° |
| 2026-04-26 14:54 | -4.10817 | 41.05347 | 35929 ft | 499 kts | 211° |
| 2026-04-26 14:54 | -4.16778 | 41.01755 | 35933 ft | 500 kts | 211° |
| 2026-04-26 14:55 | -4.22740 | 40.98128 | 35933 ft | 501 kts | 211° |
| 2026-04-26 14:55 | -4.28703 | 40.94490 | 35935 ft | 502 kts | 211° |
| 2026-04-26 14:56 | -4.34671 | 40.90848 | 35934 ft | 503 kts | 211° |
| 2026-04-26 14:56 | -4.40655 | 40.87199 | 35935 ft | 504 kts | 211° |
| 2026-04-26 14:57 | -4.46618 | 40.83562 | 35934 ft | 505 kts | 211° |
| 2026-04-26 14:57 | -4.52598 | 40.79913 | 35929 ft | 501 kts | 211° |
| 2026-04-26 14:58 | -4.58534 | 40.76291 | 35930 ft | 496 kts | 211° |
| 2026-04-26 14:58 | -4.64406 | 40.72707 | 35928 ft | 491 kts | 212° |
| 2026-04-26 14:59 | -4.70272 | 40.69126 | 35941 ft | 495 kts | 212° |
| 2026-04-26 14:59 | -4.76195 | 40.65508 | 35948 ft | 502 kts | 212° |
| 2026-04-26 15:00 | -4.82175 | 40.61813 | 35944 ft | 506 kts | 214° |
| 2026-04-26 15:00 | -4.87770 | 40.57544 | 35946 ft | 506 kts | 219° |
| 2026-04-26 15:01 | -4.93283 | 40.53110 | 35939 ft | 508 kts | 219° |
| 2026-04-26 15:01 | -4.98823 | 40.48712 | 35948 ft | 508 kts | 218° |
| 2026-04-26 15:02 | -5.04382 | 40.44332 | 35943 ft | 508 kts | 218° |
| 2026-04-26 15:02 | -5.09994 | 40.40006 | 35952 ft | 510 kts | 214° |
| 2026-04-26 15:03 | -5.16131 | 40.36543 | 35936 ft | 508 kts | 202° |
| 2026-04-26 15:03 | -5.22693 | 40.33855 | 35945 ft | 511 kts | 201° |
| 2026-04-26 15:04 | -5.29266 | 40.31218 | 35941 ft | 506 kts | 201° |
| 2026-04-26 15:04 | -5.35753 | 40.28579 | 35935 ft | 500 kts | 201° |
| 2026-04-26 15:05 | -5.42180 | 40.25935 | 35944 ft | 498 kts | 202° |
| 2026-04-26 15:05 | -5.48591 | 40.23289 | 35947 ft | 498 kts | 202° |
| 2026-04-26 15:06 | -5.54997 | 40.20644 | 35951 ft | 497 kts | 202° |
| 2026-04-26 15:06 | -5.61369 | 40.18016 | 35940 ft | 493 kts | 201° |
| 2026-04-26 15:07 | -5.70923 | 40.14075 | 35957 ft | 496 kts | 201° |
| 2026-04-26 15:07 | -5.77355 | 40.11421 | 35961 ft | 502 kts | 201° |
| 2026-04-26 15:08 | -5.83789 | 40.08765 | 35950 ft | 503 kts | 201° |
| 2026-04-26 15:08 | -5.90273 | 40.06087 | 35948 ft | 503 kts | 201° |
| 2026-04-26 15:09 | -5.96742 | 40.03415 | 35947 ft | 502 kts | 201° |
| 2026-04-26 15:09 | -6.03164 | 40.00763 | 35950 ft | 501 kts | 201° |
| 2026-04-26 15:10 | -6.08566 | 39.98530 | 35949 ft | 501 kts | 202° |
| 2026-04-26 15:10 | -6.16060 | 39.95433 | 35952 ft | 500 kts | 202° |
| 2026-04-26 15:11 | -6.22510 | 39.92766 | 35953 ft | 500 kts | 202° |
| 2026-04-26 15:11 | -6.28951 | 39.90102 | 35951 ft | 500 kts | 202° |
| 2026-04-26 15:12 | -6.35344 | 39.87458 | 35950 ft | 500 kts | 202° |
| 2026-04-26 15:12 | -6.41815 | 39.84780 | 35950 ft | 499 kts | 202° |
| 2026-04-26 15:13 | -6.48198 | 39.82139 | 35951 ft | 499 kts | 202° |
| 2026-04-26 15:13 | -6.54621 | 39.79479 | 35950 ft | 499 kts | 202° |
| 2026-04-26 15:14 | -6.61043 | 39.76820 | 35948 ft | 499 kts | 202° |
| 2026-04-26 15:14 | -6.67461 | 39.74161 | 35951 ft | 499 kts | 202° |
| 2026-04-26 15:15 | -6.73879 | 39.71502 | 35952 ft | 498 kts | 202° |
| 2026-04-26 15:15 | -6.80284 | 39.68847 | 35950 ft | 498 kts | 202° |
| 2026-04-26 15:16 | -6.86695 | 39.66190 | 35950 ft | 498 kts | 202° |
| 2026-04-26 15:16 | -6.93092 | 39.63537 | 35948 ft | 497 kts | 202° |
| 2026-04-26 15:17 | -6.98413 | 39.61330 | 35948 ft | 497 kts | 202° |
| 2026-04-26 15:17 | -7.05887 | 39.58228 | 35950 ft | 497 kts | 202° |
| 2026-04-26 15:18 | -7.12240 | 39.55592 | 35950 ft | 496 kts | 202° |
| 2026-04-26 15:18 | -7.18668 | 39.52923 | 35951 ft | 496 kts | 202° |
| 2026-04-26 15:19 | -7.25019 | 39.50285 | 35950 ft | 497 kts | 202° |
| 2026-04-26 15:19 | -7.31413 | 39.47629 | 35952 ft | 497 kts | 202° |
| 2026-04-26 15:20 | -7.37817 | 39.44968 | 35950 ft | 498 kts | 202° |
| 2026-04-26 15:20 | -7.44226 | 39.42303 | 35951 ft | 499 kts | 202° |
| 2026-04-26 15:21 | -7.50655 | 39.39630 | 35951 ft | 500 kts | 202° |
| 2026-04-26 15:21 | -7.57105 | 39.36947 | 35953 ft | 501 kts | 202° |
| 2026-04-26 15:22 | -7.63521 | 39.34277 | 35952 ft | 503 kts | 202° |
| 2026-04-26 15:22 | -7.69999 | 39.31581 | 35952 ft | 504 kts | 202° |
| 2026-04-26 15:23 | -7.76476 | 39.28883 | 35950 ft | 504 kts | 202° |
| 2026-04-26 15:23 | -7.82968 | 39.26180 | 35947 ft | 505 kts | 202° |
| 2026-04-26 15:24 | -7.89475 | 39.23468 | 35948 ft | 505 kts | 202° |
| 2026-04-26 15:24 | -7.95978 | 39.20758 | 35951 ft | 506 kts | 202° |
| 2026-04-26 15:25 | -8.01383 | 39.18504 | 35951 ft | 506 kts | 202° |
| 2026-04-26 15:25 | -8.08992 | 39.15330 | 35950 ft | 506 kts | 202° |
| 2026-04-26 15:26 | -8.15456 | 39.12633 | 35955 ft | 506 kts | 203° |
| 2026-04-26 15:26 | -8.21960 | 39.09918 | 35957 ft | 506 kts | 203° |
| 2026-04-26 15:27 | -8.28462 | 39.07204 | 35958 ft | 505 kts | 203° |
| 2026-04-26 15:27 | -8.34961 | 39.04489 | 35958 ft | 505 kts | 203° |
| 2026-04-26 15:28 | -8.41462 | 39.01773 | 35957 ft | 505 kts | 203° |
| 2026-04-26 15:28 | -8.47961 | 38.99056 | 35958 ft | 505 kts | 203° |
| 2026-04-26 15:29 | -8.54450 | 38.96343 | 35954 ft | 505 kts | 203° |
| 2026-04-26 15:30 | -8.67395 | 38.90927 | 35956 ft | 505 kts | 203° |
| 2026-04-26 15:30 | -8.73891 | 38.88208 | 35955 ft | 505 kts | 203° |
| 2026-04-26 15:31 | -8.83624 | 38.84132 | 35954 ft | 505 kts | 204° |
| 2026-04-26 15:32 | -8.91169 | 38.80970 | 35954 ft | 505 kts | 204° |
| 2026-04-26 15:32 | -8.99810 | 38.77347 | 35955 ft | 505 kts | 204° |
| 2026-04-26 15:33 | -9.06305 | 38.74623 | 35953 ft | 505 kts | 204° |
| 2026-04-26 15:33 | -9.12795 | 38.71900 | 35957 ft | 505 kts | 204° |
| 2026-04-26 15:34 | -9.18194 | 38.69634 | 35956 ft | 505 kts | 204° |
| 2026-04-26 15:34 | -9.24679 | 38.66911 | 35959 ft | 505 kts | 204° |
| 2026-04-26 15:35 | -9.31171 | 38.64184 | 35962 ft | 505 kts | 204° |
| 2026-04-26 15:35 | -9.37662 | 38.61456 | 35960 ft | 505 kts | 204° |
| 2026-04-26 15:36 | -9.44117 | 38.58743 | 35958 ft | 505 kts | 204° |
| 2026-04-26 15:36 | -9.50605 | 38.56014 | 35963 ft | 505 kts | 204° |
| 2026-04-26 15:37 | -9.57098 | 38.53282 | 35958 ft | 505 kts | 205° |
| 2026-04-26 15:37 | -9.63600 | 38.50545 | 35960 ft | 505 kts | 205° |
| 2026-04-26 15:38 | -9.70093 | 38.47811 | 35963 ft | 505 kts | 205° |
| 2026-04-26 15:38 | -9.76542 | 38.45094 | 35961 ft | 505 kts | 205° |
| 2026-04-26 15:39 | -9.83032 | 38.42359 | 35962 ft | 505 kts | 205° |
| 2026-04-26 15:39 | -9.88433 | 38.40082 | 35960 ft | 505 kts | 205° |
| 2026-04-26 15:40 | -9.96024 | 38.36880 | 35962 ft | 505 kts | 205° |
| 2026-04-26 15:40 | -10.02509 | 38.34144 | 35964 ft | 505 kts | 205° |
| 2026-04-26 15:41 | -10.08997 | 38.31405 | 35964 ft | 505 kts | 205° |
| 2026-04-26 15:41 | -10.15474 | 38.28669 | 35963 ft | 504 kts | 205° |
| 2026-04-26 15:42 | -10.21955 | 38.25931 | 35962 ft | 504 kts | 205° |
| 2026-04-26 15:42 | -10.28434 | 38.23192 | 35973 ft | 503 kts | 205° |
| 2026-04-26 15:43 | -10.34862 | 38.20474 | 35967 ft | 503 kts | 205° |
| 2026-04-26 15:44 | -10.44549 | 38.16375 | 35970 ft | 502 kts | 205° |
| 2026-04-26 15:44 | -10.54218 | 38.12280 | 35973 ft | 502 kts | 205° |
| 2026-04-26 15:45 | -10.63885 | 38.08184 | 35975 ft | 501 kts | 204° |
| 2026-04-26 15:46 | -10.73535 | 38.04092 | 35973 ft | 501 kts | 204° |
| 2026-04-26 15:46 | -10.78872 | 38.01828 | 35973 ft | 500 kts | 204° |
| 2026-04-26 15:47 | -10.89556 | 37.97293 | 35970 ft | 500 kts | 204° |
| 2026-04-26 15:48 | -10.95977 | 37.94565 | 35968 ft | 500 kts | 204° |
| 2026-04-26 15:48 | -11.02396 | 37.91837 | 35966 ft | 499 kts | 204° |
| 2026-04-26 15:49 | -11.08821 | 37.89105 | 35964 ft | 499 kts | 204° |
| 2026-04-26 15:49 | -11.15196 | 37.86394 | 35965 ft | 499 kts | 204° |
| 2026-04-26 15:50 | -11.21583 | 37.83676 | 35963 ft | 498 kts | 204° |
| 2026-04-26 15:50 | -11.27980 | 37.80952 | 35965 ft | 498 kts | 204° |
| 2026-04-26 15:51 | -11.34370 | 37.78230 | 35964 ft | 497 kts | 204° |
| 2026-04-26 15:51 | -11.40751 | 37.75509 | 35965 ft | 497 kts | 204° |
| 2026-04-26 15:52 | -11.47130 | 37.72789 | 35966 ft | 496 kts | 204° |
| 2026-04-26 15:52 | -11.53478 | 37.70080 | 35965 ft | 495 kts | 204° |
| 2026-04-26 15:53 | -11.59841 | 37.67364 | 35963 ft | 495 kts | 204° |
| 2026-04-26 15:53 | -11.66215 | 37.64805 | 35965 ft | 495 kts | 200° |
| 2026-04-26 15:54 | -11.72759 | 37.62580 | 35965 ft | 495 kts | 199° |
| 2026-04-26 15:54 | -11.79306 | 37.60400 | 35966 ft | 495 kts | 200° |
| 2026-04-26 15:55 | -11.85841 | 37.58194 | 35966 ft | 494 kts | 200° |
| 2026-04-26 15:55 | -11.92322 | 37.55985 | 35967 ft | 494 kts | 200° |
| 2026-04-26 15:56 | -11.98843 | 37.53757 | 35968 ft | 494 kts | 200° |
| 2026-04-26 15:56 | -12.05363 | 37.51529 | 35968 ft | 494 kts | 200° |
| 2026-04-26 15:57 | -12.11875 | 37.49304 | 35968 ft | 493 kts | 200° |
| 2026-04-26 15:57 | -12.18383 | 37.47079 | 35967 ft | 493 kts | 200° |
| 2026-04-26 15:58 | -12.24881 | 37.44857 | 35963 ft | 492 kts | 200° |
| 2026-04-26 15:58 | -12.31370 | 37.42637 | 35965 ft | 491 kts | 200° |
| 2026-04-26 15:59 | -12.37862 | 37.40414 | 35968 ft | 491 kts | 200° |
| 2026-04-26 15:59 | -12.44337 | 37.38196 | 35970 ft | 490 kts | 200° |
| 2026-04-26 16:00 | -12.50773 | 37.35990 | 35965 ft | 490 kts | 200° |
| 2026-04-26 16:00 | -12.57241 | 37.33772 | 35964 ft | 490 kts | 200° |
| 2026-04-26 16:01 | -12.63705 | 37.31554 | 35971 ft | 489 kts | 200° |
| 2026-04-26 16:01 | -12.70158 | 37.29339 | 35972 ft | 489 kts | 200° |
| 2026-04-26 16:02 | -12.76612 | 37.27122 | 35969 ft | 489 kts | 200° |
| 2026-04-26 16:02 | -12.83064 | 37.24906 | 35975 ft | 489 kts | 199° |
| 2026-04-26 16:03 | -12.89530 | 37.22747 | 35975 ft | 489 kts | 199° |
| 2026-04-26 16:03 | -12.96018 | 37.20609 | 35979 ft | 488 kts | 199° |
| 2026-04-26 16:04 | -13.02485 | 37.18471 | 35983 ft | 488 kts | 199° |
| 2026-04-26 16:04 | -13.08943 | 37.16327 | 35988 ft | 488 kts | 199° |
| 2026-04-26 16:05 | -13.15400 | 37.14180 | 35991 ft | 487 kts | 199° |
| 2026-04-26 16:05 | -13.21813 | 37.12046 | 36000 ft | 487 kts | 199° |
| 2026-04-26 16:06 | -13.28255 | 37.09902 | 36003 ft | 487 kts | 199° |
| 2026-04-26 16:06 | -13.34695 | 37.07757 | 36008 ft | 486 kts | 199° |
| 2026-04-26 16:07 | -13.41135 | 37.05611 | 36011 ft | 486 kts | 199° |
| 2026-04-26 16:07 | -13.47564 | 37.03468 | 36015 ft | 486 kts | 199° |
| 2026-04-26 16:08 | -13.53991 | 37.01324 | 36014 ft | 485 kts | 199° |
| 2026-04-26 16:08 | -13.60417 | 36.99179 | 36019 ft | 485 kts | 199° |
| 2026-04-26 16:09 | -13.66793 | 36.97050 | 36017 ft | 484 kts | 199° |
| 2026-04-26 16:09 | -13.73202 | 36.94908 | 36018 ft | 484 kts | 199° |
| 2026-04-26 16:10 | -13.79615 | 36.92764 | 36019 ft | 484 kts | 199° |
| 2026-04-26 16:10 | -13.86009 | 36.90624 | 36013 ft | 483 kts | 199° |
| 2026-04-26 16:11 | -13.92412 | 36.88481 | 36014 ft | 483 kts | 199° |
| 2026-04-26 16:11 | -13.98801 | 36.86340 | 36009 ft | 482 kts | 199° |
| 2026-04-26 16:12 | -14.05180 | 36.84210 | 36012 ft | 482 kts | 199° |
| 2026-04-26 16:12 | -14.14774 | 36.81057 | 36010 ft | 481 kts | 198° |
| 2026-04-26 16:13 | -14.21108 | 36.78976 | 36014 ft | 481 kts | 198° |
| 2026-04-26 16:13 | -14.27488 | 36.76874 | 36015 ft | 481 kts | 198° |
| 2026-04-26 16:14 | -14.33864 | 36.74771 | 36018 ft | 480 kts | 198° |
| 2026-04-26 16:15 | -14.43413 | 36.71618 | 36021 ft | 480 kts | 198° |
| 2026-04-26 16:15 | -14.49770 | 36.69518 | 36021 ft | 479 kts | 198° |
| 2026-04-26 16:16 | -14.59263 | 36.66379 | 36026 ft | 479 kts | 198° |
| 2026-04-26 16:16 | -14.65615 | 36.64277 | 36029 ft | 479 kts | 198° |
| 2026-04-26 16:17 | -14.71953 | 36.62179 | 36034 ft | 479 kts | 198° |
| 2026-04-26 16:17 | -14.78301 | 36.60076 | 36039 ft | 478 kts | 198° |
| 2026-04-26 16:18 | -14.87809 | 36.56923 | 36047 ft | 478 kts | 198° |
| 2026-04-26 16:19 | -14.97312 | 36.53769 | 36053 ft | 478 kts | 198° |
| 2026-04-26 16:20 | -15.06804 | 36.50617 | 36061 ft | 477 kts | 198° |
| 2026-04-26 16:20 | -15.15221 | 36.47819 | 36069 ft | 477 kts | 198° |
| 2026-04-26 16:21 | -15.22553 | 36.45379 | 36073 ft | 476 kts | 198° |
| 2026-04-26 16:21 | -15.28860 | 36.43279 | 36080 ft | 476 kts | 198° |
| 2026-04-26 16:22 | -15.34140 | 36.41520 | 36083 ft | 475 kts | 198° |
| 2026-04-26 16:22 | -15.40403 | 36.39432 | 36085 ft | 475 kts | 198° |
| 2026-04-26 16:23 | -15.46696 | 36.37333 | 36092 ft | 475 kts | 198° |
| 2026-04-26 16:23 | -15.52992 | 36.35232 | 36090 ft | 474 kts | 198° |
| 2026-04-26 16:24 | -15.59276 | 36.33133 | 36090 ft | 474 kts | 198° |
| 2026-04-26 16:24 | -15.65552 | 36.31036 | 36094 ft | 474 kts | 198° |
| 2026-04-26 16:25 | -15.71836 | 36.28934 | 36092 ft | 474 kts | 198° |
| 2026-04-26 16:25 | -15.78069 | 36.26848 | 36088 ft | 474 kts | 198° |
| 2026-04-26 16:26 | -15.84342 | 36.24748 | 36096 ft | 473 kts | 198° |
| 2026-04-26 16:26 | -15.90612 | 36.22646 | 36091 ft | 474 kts | 199° |
| 2026-04-26 16:27 | -15.96889 | 36.20542 | 36091 ft | 473 kts | 199° |
| 2026-04-26 16:27 | -16.03160 | 36.18421 | 36085 ft | 474 kts | 199° |
| 2026-04-26 16:28 | -16.09422 | 36.16273 | 36083 ft | 474 kts | 199° |
| 2026-04-26 16:28 | -16.15683 | 36.14122 | 36082 ft | 474 kts | 199° |
| 2026-04-26 16:29 | -16.21948 | 36.11971 | 36077 ft | 474 kts | 199° |
| 2026-04-26 16:29 | -16.28214 | 36.09821 | 36078 ft | 474 kts | 199° |
| 2026-04-26 16:30 | -16.34478 | 36.07671 | 36080 ft | 474 kts | 199° |
| 2026-04-26 16:30 | -16.40734 | 36.05522 | 36073 ft | 474 kts | 199° |
| 2026-04-26 16:31 | -16.46962 | 36.03381 | 36067 ft | 474 kts | 199° |
| 2026-04-26 16:31 | -16.53228 | 36.01225 | 36069 ft | 474 kts | 199° |
| 2026-04-26 16:32 | -16.58436 | 35.99432 | 36069 ft | 474 kts | 199° |
| 2026-04-26 16:32 | -16.65759 | 35.96910 | 36067 ft | 474 kts | 200° |
| 2026-04-26 16:33 | -16.72024 | 35.94750 | 36063 ft | 474 kts | 200° |
| 2026-04-26 16:33 | -16.78297 | 35.92586 | 36066 ft | 474 kts | 200° |
| 2026-04-26 16:34 | -16.84562 | 35.90423 | 36059 ft | 474 kts | 200° |
| 2026-04-26 16:34 | -16.90835 | 35.88257 | 36050 ft | 475 kts | 200° |
| 2026-04-26 16:35 | -16.97102 | 35.86090 | 36051 ft | 475 kts | 200° |
| 2026-04-26 16:35 | -17.03335 | 35.83934 | 36065 ft | 475 kts | 200° |
| 2026-04-26 16:36 | -17.09608 | 35.81762 | 36045 ft | 475 kts | 200° |
| 2026-04-26 16:36 | -17.15889 | 35.79586 | 36054 ft | 475 kts | 200° |
| 2026-04-26 16:37 | -17.22169 | 35.77409 | 36051 ft | 475 kts | 200° |
| 2026-04-26 16:37 | -17.28454 | 35.75229 | 36049 ft | 476 kts | 200° |
| 2026-04-26 16:38 | -17.34733 | 35.73048 | 36046 ft | 476 kts | 200° |
| 2026-04-26 16:38 | -17.41027 | 35.70862 | 36043 ft | 476 kts | 200° |
| 2026-04-26 16:39 | -17.47309 | 35.68677 | 36042 ft | 476 kts | 200° |
| 2026-04-26 16:39 | -17.53597 | 35.66489 | 36040 ft | 476 kts | 200° |
| 2026-04-26 16:40 | -17.59886 | 35.64299 | 36031 ft | 476 kts | 200° |
| 2026-04-26 16:40 | -17.66143 | 35.62119 | 36029 ft | 476 kts | 201° |
| 2026-04-26 16:41 | -17.72440 | 35.59921 | 36022 ft | 476 kts | 201° |
| 2026-04-26 16:41 | -17.78733 | 35.57724 | 36025 ft | 477 kts | 201° |
| 2026-04-26 16:42 | -17.85032 | 35.55523 | 36017 ft | 477 kts | 201° |
| 2026-04-26 16:42 | -17.91329 | 35.53321 | 36017 ft | 477 kts | 201° |
| 2026-04-26 16:43 | -17.97634 | 35.51114 | 36015 ft | 477 kts | 201° |
| 2026-04-26 16:43 | -18.03934 | 35.48908 | 36014 ft | 477 kts | 201° |
| 2026-04-26 16:44 | -18.07053 | 35.47811 | 35998 ft | 466 kts | 197° |
| 2026-04-26 16:44 | -18.10101 | 35.46742 | 35999 ft | 457 kts | 197° |
| 2026-04-26 16:44 | -18.16057 | 35.44655 | 36016 ft | 454 kts | 197° |
| 2026-04-26 16:45 | -18.22070 | 35.42546 | 36021 ft | 456 kts | 198° |
| 2026-04-26 16:45 | -18.28110 | 35.40425 | 36024 ft | 459 kts | 198° |
| 2026-04-26 16:46 | -18.34179 | 35.38291 | 36020 ft | 461 kts | 198° |
| 2026-04-26 16:46 | -18.40273 | 35.36147 | 36023 ft | 462 kts | 198° |
| 2026-04-26 16:47 | -18.46385 | 35.33995 | 36022 ft | 463 kts | 198° |
| 2026-04-26 16:47 | -18.52492 | 35.31843 | 36025 ft | 462 kts | 198° |
| 2026-04-26 16:48 | -18.58594 | 35.29691 | 36025 ft | 462 kts | 198° |
| 2026-04-26 16:48 | -18.64683 | 35.27546 | 36022 ft | 461 kts | 198° |
| 2026-04-26 16:49 | -18.70765 | 35.25405 | 36023 ft | 460 kts | 198° |
| 2026-04-26 16:49 | -18.76832 | 35.23267 | 36023 ft | 459 kts | 198° |
| 2026-04-26 16:50 | -18.82853 | 35.21143 | 36023 ft | 459 kts | 198° |
| 2026-04-26 16:50 | -18.88909 | 35.19005 | 36029 ft | 459 kts | 198° |
| 2026-04-26 16:51 | -18.94962 | 35.16866 | 36027 ft | 459 kts | 198° |
| 2026-04-26 16:51 | -19.01018 | 35.14724 | 36023 ft | 459 kts | 198° |
| 2026-04-26 16:52 | -19.06051 | 35.12943 | 36028 ft | 459 kts | 198° |
| 2026-04-26 16:52 | -19.13127 | 35.10436 | 36023 ft | 459 kts | 198° |
| 2026-04-26 16:53 | -19.19193 | 35.08286 | 36023 ft | 459 kts | 198° |
| 2026-04-26 16:53 | -19.25217 | 35.06149 | 36022 ft | 459 kts | 198° |
| 2026-04-26 16:54 | -19.31273 | 35.03999 | 36021 ft | 459 kts | 198° |
| 2026-04-26 16:54 | -19.37336 | 35.01845 | 36021 ft | 459 kts | 198° |
| 2026-04-26 16:55 | -19.43393 | 34.99691 | 36016 ft | 459 kts | 198° |
| 2026-04-26 16:55 | -19.49452 | 34.97534 | 36014 ft | 459 kts | 198° |
| 2026-04-26 16:56 | -19.58532 | 34.94300 | 36017 ft | 458 kts | 198° |
| 2026-04-26 16:57 | -19.64579 | 34.92143 | 36019 ft | 458 kts | 198° |
| 2026-04-26 16:57 | -19.73640 | 34.88902 | 36015 ft | 458 kts | 199° |
| 2026-04-26 16:58 | -19.77480 | 34.87047 | 36015 ft | 458 kts | 208° |
| 2026-04-26 16:58 | -19.84423 | 34.81870 | 36014 ft | 460 kts | 219° |
| 2026-04-26 16:59 | -19.86819 | 34.79617 | 36022 ft | 460 kts | 220° |
| 2026-04-26 17:00 | -19.96347 | 34.70515 | 36011 ft | 460 kts | 220° |
| 2026-04-26 17:00 | -20.01160 | 34.65966 | 36297 ft | 464 kts | 219° |
| 2026-04-26 17:00 | -20.03574 | 34.63689 | 36557 ft | 464 kts | 219° |
| 2026-04-26 17:01 | -20.05992 | 34.61409 | 36779 ft | 465 kts | 219° |
| 2026-04-26 17:01 | -20.08387 | 34.59151 | 36948 ft | 467 kts | 219° |
| 2026-04-26 17:01 | -20.10826 | 34.56849 | 37081 ft | 470 kts | 219° |
| 2026-04-26 17:01 | -20.13275 | 34.54537 | 37239 ft | 471 kts | 220° |
| 2026-04-26 17:02 | -20.15728 | 34.52218 | 37402 ft | 473 kts | 220° |
| 2026-04-26 17:02 | -20.18191 | 34.49889 | 37537 ft | 474 kts | 220° |
| 2026-04-26 17:02 | -20.20663 | 34.47551 | 37697 ft | 475 kts | 220° |
| 2026-04-26 17:02 | -20.23138 | 34.45209 | 37810 ft | 477 kts | 220° |
| 2026-04-26 17:03 | -20.25618 | 34.42860 | 37921 ft | 479 kts | 220° |
| 2026-04-26 17:03 | -20.28116 | 34.40494 | 37976 ft | 481 kts | 220° |
| 2026-04-26 17:03 | -20.33122 | 34.35749 | 38005 ft | 482 kts | 220° |
| 2026-04-26 17:04 | -20.38119 | 34.31007 | 38026 ft | 480 kts | 220° |
| 2026-04-26 17:04 | -20.43107 | 34.26270 | 38018 ft | 479 kts | 220° |
| 2026-04-26 17:05 | -20.48082 | 34.21543 | 38018 ft | 479 kts | 220° |
| 2026-04-26 17:05 | -20.53054 | 34.16813 | 38018 ft | 478 kts | 220° |
| 2026-04-26 17:06 | -20.57184 | 34.12880 | 38020 ft | 478 kts | 220° |
| 2026-04-26 17:06 | -20.62148 | 34.08149 | 38017 ft | 479 kts | 220° |
| 2026-04-26 17:07 | -20.67115 | 34.03411 | 38020 ft | 479 kts | 220° |
| 2026-04-26 17:07 | -20.72089 | 33.98677 | 38018 ft | 478 kts | 219° |
| 2026-04-26 17:08 | -20.77217 | 33.94142 | 38021 ft | 478 kts | 217° |
| 2026-04-26 17:08 | -20.82375 | 33.89720 | 38021 ft | 478 kts | 217° |
| 2026-04-26 17:09 | -20.86685 | 33.85994 | 38019 ft | 479 kts | 218° |
| 2026-04-26 17:09 | -20.92720 | 33.80725 | 38023 ft | 479 kts | 218° |
| 2026-04-26 17:10 | -20.97871 | 33.76208 | 38024 ft | 479 kts | 218° |
| 2026-04-26 17:10 | -21.03031 | 33.71679 | 38026 ft | 479 kts | 218° |
| 2026-04-26 17:11 | -21.08184 | 33.67154 | 38028 ft | 479 kts | 218° |
| 2026-04-26 17:11 | -21.13346 | 33.62618 | 38028 ft | 480 kts | 218° |
| 2026-04-26 17:12 | -21.21058 | 33.55833 | 38024 ft | 480 kts | 218° |
| 2026-04-26 17:13 | -21.26219 | 33.51287 | 38217 ft | 480 kts | 222° |
| 2026-04-26 17:13 | -21.28792 | 33.49022 | 38141 ft | 477 kts | 220° |
| 2026-04-26 17:13 | -21.33871 | 33.44542 | 38027 ft | 469 kts | 220° |
| 2026-04-26 17:14 | -21.36387 | 33.42321 | 38036 ft | 468 kts | 220° |
| 2026-04-26 17:14 | -21.43905 | 33.35677 | 38023 ft | 466 kts | 220° |
| 2026-04-26 17:15 | -21.51410 | 33.29036 | 38029 ft | 467 kts | 220° |
| 2026-04-26 17:16 | -21.56427 | 33.24593 | 38028 ft | 468 kts | 220° |
| 2026-04-26 17:16 | -21.61421 | 33.20165 | 38025 ft | 469 kts | 220° |
| 2026-04-26 17:17 | -21.66464 | 33.15690 | 38029 ft | 469 kts | 220° |
| 2026-04-26 17:17 | -21.71508 | 33.11208 | 38021 ft | 470 kts | 220° |
| 2026-04-26 17:18 | -21.76553 | 33.06723 | 38024 ft | 470 kts | 220° |
| 2026-04-26 17:18 | -21.81581 | 33.02215 | 38023 ft | 470 kts | 221° |
| 2026-04-26 17:19 | -21.89055 | 32.95431 | 38025 ft | 470 kts | 221° |
| 2026-04-26 17:19 | -21.94057 | 32.90893 | 38030 ft | 470 kts | 221° |
| 2026-04-26 17:20 | -21.98212 | 32.87122 | 38026 ft | 470 kts | 221° |
| 2026-04-26 17:20 | -22.04053 | 32.81818 | 38029 ft | 469 kts | 221° |
| 2026-04-26 17:21 | -22.09079 | 32.77315 | 38029 ft | 469 kts | 220° |
| 2026-04-26 17:21 | -22.14125 | 32.72845 | 38021 ft | 469 kts | 220° |
| 2026-04-26 17:22 | -22.19123 | 32.68410 | 38022 ft | 468 kts | 220° |
| 2026-04-26 17:22 | -22.24144 | 32.63940 | 38021 ft | 468 kts | 220° |
| 2026-04-26 17:23 | -22.29174 | 32.59453 | 38025 ft | 468 kts | 220° |
| 2026-04-26 17:23 | -22.34191 | 32.54973 | 38024 ft | 467 kts | 220° |
| 2026-04-26 17:24 | -22.39201 | 32.50496 | 38024 ft | 467 kts | 220° |
| 2026-04-26 17:24 | -22.44206 | 32.46018 | 38037 ft | 467 kts | 220° |
| 2026-04-26 17:25 | -22.49204 | 32.41543 | 38030 ft | 467 kts | 220° |
| 2026-04-26 17:25 | -22.54208 | 32.37058 | 38025 ft | 466 kts | 220° |
| 2026-04-26 17:26 | -22.59168 | 32.32609 | 38022 ft | 466 kts | 220° |
| 2026-04-26 17:26 | -22.64159 | 32.28126 | 38037 ft | 466 kts | 220° |
| 2026-04-26 17:27 | -22.69153 | 32.23637 | 38043 ft | 466 kts | 220° |
| 2026-04-26 17:27 | -22.74141 | 32.19149 | 38039 ft | 465 kts | 220° |
| 2026-04-26 17:28 | -22.79123 | 32.14661 | 38039 ft | 465 kts | 220° |
| 2026-04-26 17:28 | -22.84100 | 32.10174 | 38035 ft | 465 kts | 220° |
| 2026-04-26 17:29 | -22.88234 | 32.06443 | 38017 ft | 465 kts | 220° |
| 2026-04-26 17:29 | -22.94009 | 32.01226 | 38031 ft | 465 kts | 220° |
| 2026-04-26 17:30 | -22.98999 | 31.96748 | 38043 ft | 465 kts | 219° |
| 2026-04-26 17:30 | -23.04053 | 31.92364 | 38036 ft | 465 kts | 219° |
| 2026-04-26 17:31 | -23.09112 | 31.87995 | 38043 ft | 465 kts | 219° |
| 2026-04-26 17:31 | -23.14165 | 31.83605 | 38043 ft | 465 kts | 219° |
| 2026-04-26 17:32 | -23.19205 | 31.79211 | 38050 ft | 465 kts | 219° |
| 2026-04-26 17:32 | -23.24247 | 31.74810 | 38046 ft | 465 kts | 219° |
| 2026-04-26 17:33 | -23.29291 | 31.70404 | 38051 ft | 465 kts | 219° |
| 2026-04-26 17:34 | -23.36856 | 31.63786 | 38056 ft | 465 kts | 219° |
| 2026-04-26 17:34 | -23.41865 | 31.59335 | 38059 ft | 464 kts | 223° |
| 2026-04-26 17:35 | -23.46247 | 31.54177 | 38072 ft | 464 kts | 231° |
| 2026-04-26 17:35 | -23.49928 | 31.48401 | 38067 ft | 465 kts | 237° |
| 2026-04-26 17:36 | -23.53245 | 31.42410 | 38074 ft | 465 kts | 238° |
| 2026-04-26 17:36 | -23.56568 | 31.36358 | 38065 ft | 465 kts | 238° |
| 2026-04-26 17:37 | -23.59901 | 31.30340 | 38064 ft | 457 kts | 238° |
| 2026-04-26 17:37 | -23.63139 | 31.24518 | 38067 ft | 445 kts | 238° |
| 2026-04-26 17:38 | -23.67942 | 31.15887 | 38088 ft | 443 kts | 238° |
| 2026-04-26 17:38 | -23.71140 | 31.10130 | 38084 ft | 443 kts | 238° |
| 2026-04-26 17:39 | -23.74331 | 31.04375 | 38093 ft | 443 kts | 238° |
| 2026-04-26 17:39 | -23.77507 | 30.98643 | 38095 ft | 444 kts | 238° |
| 2026-04-26 17:40 | -23.79646 | 30.94779 | 38014 ft | 446 kts | 238° |
| 2026-04-26 17:40 | -23.83964 | 30.86967 | 38105 ft | 456 kts | 238° |
| 2026-04-26 17:41 | -23.87248 | 30.81017 | 38116 ft | 459 kts | 238° |
| 2026-04-26 17:41 | -23.90542 | 30.75042 | 38113 ft | 459 kts | 238° |
| 2026-04-26 17:42 | -23.93828 | 30.69074 | 38118 ft | 457 kts | 238° |
| 2026-04-26 17:42 | -23.97094 | 30.63136 | 38123 ft | 454 kts | 238° |
| 2026-04-26 17:43 | -24.00316 | 30.57271 | 38135 ft | 451 kts | 238° |
| 2026-04-26 17:43 | -24.03560 | 30.51358 | 38145 ft | 449 kts | 238° |
| 2026-04-26 17:44 | -24.06744 | 30.45548 | 38153 ft | 448 kts | 238° |
| 2026-04-26 17:44 | -24.09943 | 30.39704 | 38175 ft | 447 kts | 239° |
| 2026-04-26 17:45 | -24.13139 | 30.33857 | 38183 ft | 447 kts | 239° |
| 2026-04-26 17:45 | -24.16331 | 30.28013 | 38193 ft | 448 kts | 239° |
| 2026-04-26 17:46 | -24.19561 | 30.22179 | 38202 ft | 448 kts | 235° |
| 2026-04-26 17:46 | -24.23624 | 30.17000 | 38210 ft | 450 kts | 225° |
| 2026-04-26 17:47 | -24.26790 | 30.13988 | 38206 ft | 451 kts | 219° |
| 2026-04-26 17:47 | -24.33446 | 30.08465 | 38217 ft | 451 kts | 218° |
| 2026-04-26 17:48 | -24.38470 | 30.04322 | 38225 ft | 452 kts | 218° |
| 2026-04-26 17:48 | -24.43480 | 30.00148 | 38238 ft | 452 kts | 219° |
| 2026-04-26 17:49 | -24.48483 | 29.95955 | 38234 ft | 452 kts | 219° |
| 2026-04-26 17:49 | -24.53473 | 29.91765 | 38236 ft | 451 kts | 219° |
| 2026-04-26 17:50 | -24.58415 | 29.87611 | 38242 ft | 449 kts | 219° |
| 2026-04-26 17:50 | -24.63371 | 29.83442 | 38250 ft | 448 kts | 219° |
| 2026-04-26 17:51 | -24.68326 | 29.79270 | 38242 ft | 448 kts | 219° |
| 2026-04-26 17:51 | -24.73246 | 29.75123 | 37748 ft | 442 kts | 219° |
| 2026-04-26 17:52 | -24.75677 | 29.73073 | 37359 ft | 437 kts | 219° |
| 2026-04-26 17:52 | -24.78081 | 29.71045 | 37007 ft | 434 kts | 219° |
| 2026-04-26 17:52 | -24.79661 | 29.69712 | 36756 ft | 432 kts | 219° |
| 2026-04-26 17:52 | -24.82038 | 29.67704 | 36393 ft | 429 kts | 220° |
| 2026-04-26 17:53 | -24.84404 | 29.65705 | 36033 ft | 427 kts | 220° |
| 2026-04-26 17:53 | -24.86754 | 29.63718 | 35691 ft | 424 kts | 220° |
| 2026-04-26 17:53 | -24.89086 | 29.61745 | 35347 ft | 421 kts | 220° |
| 2026-04-26 17:54 | -24.93711 | 29.57831 | 34657 ft | 416 kts | 220° |
| 2026-04-26 17:54 | -24.95999 | 29.55892 | 34330 ft | 413 kts | 221° |
| 2026-04-26 17:54 | -24.98265 | 29.53972 | 33951 ft | 409 kts | 221° |
| 2026-04-26 17:54 | -25.00516 | 29.52063 | 33561 ft | 406 kts | 221° |
| 2026-04-26 17:55 | -25.02722 | 29.50191 | 33194 ft | 403 kts | 221° |
| 2026-04-26 17:55 | -25.04938 | 29.48310 | 32820 ft | 401 kts | 221° |
| 2026-04-26 17:55 | -25.07139 | 29.46441 | 32456 ft | 398 kts | 221° |
| 2026-04-26 17:55 | -25.09330 | 29.44579 | 32093 ft | 396 kts | 221° |
| 2026-04-26 17:56 | -25.11501 | 29.42734 | 31735 ft | 393 kts | 221° |
| 2026-04-26 17:56 | -25.15817 | 29.39063 | 31028 ft | 389 kts | 221° |
| 2026-04-26 17:57 | -25.20082 | 29.35432 | 30357 ft | 385 kts | 221° |
| 2026-04-26 17:57 | -25.22197 | 29.33630 | 29987 ft | 382 kts | 221° |
| 2026-04-26 17:57 | -25.24297 | 29.31841 | 29630 ft | 380 kts | 221° |
| 2026-04-26 17:57 | -25.26382 | 29.30062 | 29289 ft | 378 kts | 221° |
| 2026-04-26 17:58 | -25.32567 | 29.24784 | 28297 ft | 374 kts | 221° |
| 2026-04-26 17:59 | -25.36679 | 29.21270 | 27660 ft | 373 kts | 220° |
| 2026-04-26 17:59 | -25.38735 | 29.19512 | 27349 ft | 373 kts | 220° |
| 2026-04-26 17:59 | -25.40790 | 29.17753 | 27038 ft | 374 kts | 220° |
| 2026-04-26 17:59 | -25.42849 | 29.15992 | 26731 ft | 374 kts | 220° |
| 2026-04-26 18:00 | -25.44906 | 29.14231 | 26438 ft | 375 kts | 220° |
| 2026-04-26 18:00 | -25.47020 | 29.12416 | 26172 ft | 396 kts | 220° |
| 2026-04-26 18:00 | -25.49230 | 29.10519 | 25876 ft | 403 kts | 220° |
| 2026-04-26 18:00 | -25.51446 | 29.08620 | 25580 ft | 404 kts | 220° |
| 2026-04-26 18:01 | -25.53668 | 29.06716 | 25299 ft | 404 kts | 220° |
| 2026-04-26 18:01 | -25.55890 | 29.04811 | 24998 ft | 403 kts | 219° |
| 2026-04-26 18:01 | -25.58057 | 29.02953 | 24709 ft | 396 kts | 219° |
| 2026-04-26 18:01 | -25.60219 | 29.01098 | 24413 ft | 389 kts | 219° |
| 2026-04-26 18:02 | -25.62341 | 28.99277 | 24126 ft | 382 kts | 219° |
| 2026-04-26 18:02 | -25.63752 | 28.98064 | 23929 ft | 378 kts | 219° |
| 2026-04-26 18:02 | -25.66486 | 28.95714 | 23409 ft | 375 kts | 219° |
| 2026-04-26 18:02 | -25.68553 | 28.93935 | 22981 ft | 377 kts | 219° |
| 2026-04-26 18:03 | -25.70630 | 28.92146 | 22558 ft | 378 kts | 219° |
| 2026-04-26 18:03 | -25.72710 | 28.90353 | 22151 ft | 378 kts | 219° |
| 2026-04-26 18:03 | -25.74786 | 28.88565 | 21727 ft | 377 kts | 219° |
| 2026-04-26 18:03 | -25.76857 | 28.86779 | 21309 ft | 376 kts | 219° |
| 2026-04-26 18:04 | -25.78919 | 28.85001 | 20912 ft | 375 kts | 219° |
| 2026-04-26 18:04 | -25.80974 | 28.83229 | 20505 ft | 372 kts | 219° |
| 2026-04-26 18:04 | -25.83005 | 28.81476 | 20108 ft | 369 kts | 219° |
| 2026-04-26 18:05 | -25.87016 | 28.78013 | 19322 ft | 362 kts | 219° |
| 2026-04-26 18:05 | -25.88973 | 28.76323 | 18948 ft | 359 kts | 220° |
| 2026-04-26 18:05 | -25.90940 | 28.74621 | 18568 ft | 356 kts | 220° |
| 2026-04-26 18:05 | -25.92885 | 28.72938 | 18124 ft | 353 kts | 220° |
| 2026-04-26 18:06 | -25.94819 | 28.71263 | 17687 ft | 351 kts | 220° |
| 2026-04-26 18:06 | -25.96740 | 28.69599 | 17271 ft | 349 kts | 220° |
| 2026-04-26 18:06 | -25.98649 | 28.67946 | 16861 ft | 347 kts | 220° |
| 2026-04-26 18:06 | -26.00523 | 28.66322 | 16447 ft | 344 kts | 220° |
| 2026-04-26 18:07 | -26.02253 | 28.64822 | 16062 ft | 342 kts | 220° |
| 2026-04-26 18:07 | -26.03722 | 28.63549 | 15718 ft | 330 kts | 220° |
| 2026-04-26 18:07 | -26.05488 | 28.62020 | 15373 ft | 313 kts | 220° |
| 2026-04-26 18:07 | -26.06607 | 28.61050 | 15183 ft | 302 kts | 220° |
| 2026-04-26 18:08 | -26.08756 | 28.59186 | 14817 ft | 283 kts | 220° |
| 2026-04-26 18:08 | -26.10278 | 28.57865 | 14539 ft | 273 kts | 220° |
| 2026-04-26 18:08 | -26.11759 | 28.56578 | 14300 ft | 268 kts | 220° |
| 2026-04-26 18:08 | -26.13224 | 28.55302 | 14073 ft | 266 kts | 220° |
| 2026-04-26 18:09 | -26.14682 | 28.54032 | 13791 ft | 266 kts | 220° |
| 2026-04-26 18:09 | -26.16122 | 28.52779 | 13476 ft | 267 kts | 220° |
| 2026-04-26 18:09 | -26.17587 | 28.51503 | 13152 ft | 268 kts | 220° |
| 2026-04-26 18:09 | -26.19057 | 28.50226 | 12801 ft | 269 kts | 220° |
| 2026-04-26 18:10 | -26.20542 | 28.48947 | 12439 ft | 269 kts | 219° |
| 2026-04-26 18:10 | -26.22029 | 28.47668 | 12083 ft | 269 kts | 219° |
| 2026-04-26 18:10 | -26.23484 | 28.46413 | 11723 ft | 260 kts | 219° |
| 2026-04-26 18:10 | -26.24883 | 28.45205 | 11422 ft | 249 kts | 219° |
| 2026-04-26 18:11 | -26.26226 | 28.44043 | 11103 ft | 240 kts | 219° |
| 2026-04-26 18:11 | -26.27524 | 28.42914 | 10819 ft | 235 kts | 219° |
| 2026-04-26 18:11 | -26.28803 | 28.41797 | 10538 ft | 233 kts | 219° |
| 2026-04-26 18:11 | -26.30057 | 28.40697 | 10263 ft | 231 kts | 219° |
| 2026-04-26 18:12 | -26.31318 | 28.39584 | 9932 ft | 230 kts | 219° |
| 2026-04-26 18:12 | -26.32577 | 28.38474 | 9602 ft | 230 kts | 219° |
| 2026-04-26 18:12 | -26.33827 | 28.37376 | 9331 ft | 227 kts | 219° |
| 2026-04-26 18:12 | -26.35063 | 28.36293 | 9050 ft | 225 kts | 219° |
| 2026-04-26 18:13 | -26.36283 | 28.35231 | 8826 ft | 220 kts | 219° |
| 2026-04-26 18:13 | -26.37463 | 28.34208 | 8655 ft | 216 kts | 219° |
| 2026-04-26 18:13 | -26.38485 | 28.33009 | 8438 ft | 215 kts | 246° |
| 2026-04-26 18:13 | -26.38808 | 28.31940 | 8360 ft | 216 kts | 257° |
| 2026-04-26 18:14 | -26.39203 | 28.29719 | 8176 ft | 223 kts | 259° |
| 2026-04-26 18:14 | -26.39493 | 28.28034 | 8099 ft | 219 kts | 259° |
| 2026-04-26 18:14 | -26.39777 | 28.26377 | 8040 ft | 216 kts | 259° |
| 2026-04-26 18:14 | -26.40058 | 28.24730 | 8032 ft | 216 kts | 259° |
| 2026-04-26 18:15 | -26.40133 | 28.23093 | 8044 ft | 217 kts | 282° |
| 2026-04-26 18:15 | -26.39398 | 28.21640 | 8026 ft | 221 kts | 315° |
| 2026-04-26 18:15 | -26.38097 | 28.20825 | 8019 ft | 209 kts | 336° |
| 2026-04-26 18:15 | -26.36762 | 28.20317 | 7998 ft | 196 kts | 339° |
| 2026-04-26 18:16 | -26.35479 | 28.19854 | 8005 ft | 192 kts | 339° |
| 2026-04-26 18:16 | -26.32825 | 28.19796 | 8036 ft | 200 kts | 9° |
| 2026-04-26 18:16 | -26.31468 | 28.20155 | 8038 ft | 205 kts | 12° |
| 2026-04-26 18:17 | -26.30094 | 28.20571 | 8024 ft | 202 kts | 13° |
| 2026-04-26 18:17 | -26.28751 | 28.20990 | 8015 ft | 199 kts | 13° |
| 2026-04-26 18:17 | -26.27409 | 28.21409 | 7750 ft | 199 kts | 13° |
| 2026-04-26 18:17 | -26.26118 | 28.21812 | 7503 ft | 187 kts | 12° |
| 2026-04-26 18:18 | -26.24879 | 28.22198 | 7307 ft | 183 kts | 13° |
| 2026-04-26 18:18 | -26.23668 | 28.22574 | 7081 ft | 176 kts | 12° |
| 2026-04-26 18:18 | -26.22490 | 28.22939 | 6854 ft | 175 kts | 12° |
| 2026-04-26 18:18 | -26.21367 | 28.23290 | 6622 ft | 164 kts | 12° |
| 2026-04-26 18:19 | -26.20296 | 28.23621 | 6401 ft | 158 kts | 12° |
| 2026-04-26 18:19 | -26.19236 | 28.23952 | 6149 ft | 157 kts | 13° |
| 2026-04-26 18:19 | -26.18185 | 28.24275 | 5893 ft | 156 kts | 13° |
| 2026-04-26 18:19 | -26.17154 | 28.24608 | 5675 ft | 154 kts | 11° |
| 2026-04-26 18:20 | -26.16122 | 28.24920 | 5525 ft | 152 kts | 12° |
| 2026-04-26 18:20 | -26.15226 | 28.25200 | 5517 ft | 108 kts | 15° |
| 2026-04-26 18:20 | -26.14682 | 28.25369 | 5509 ft | 54 kts | 15° |
| 2026-04-26 18:20 | -26.14495 | 28.25426 | 5511 ft | 39 kts | 15° |
| 2026-04-26 18:21 | -26.14227 | 28.25481 | 5516 ft | 23 kts | 356° |
| 2026-04-26 18:21 | -26.14071 | 28.25453 | 5515 ft | 16 kts | 350° |
| 2026-04-26 18:21 | -26.13964 | 28.25435 | 5515 ft | 16 kts | 353° |
| 2026-04-26 18:21 | -26.13856 | 28.25421 | 5514 ft | 16 kts | 2° |
| 2026-04-26 18:22 | -26.13818 | 28.25428 | 5513 ft | 0 kts | 15° |
| 2026-04-26 18:22 | -26.13815 | 28.25429 | 5513 ft | 1 kts | 15° |
| 2026-04-26 18:22 | -26.13812 | 28.25430 | 5513 ft | 0 kts | 15° |
| 2026-04-26 18:23 | -26.13809 | 28.25431 | 5513 ft | 0 kts | 15° |
| 2026-04-26 18:27 | -26.13808 | 28.25431 | 5513 ft | 1 kts | 15° |
| 2026-04-26 18:27 | -26.13742 | 28.25452 | 5512 ft | 14 kts | 16° |
| 2026-04-26 18:28 | -26.13649 | 28.25481 | 5509 ft | 14 kts | 15° |
| 2026-04-26 18:28 | -26.13554 | 28.25510 | 5506 ft | 14 kts | 15° |
| 2026-04-26 18:28 | -26.13457 | 28.25524 | 5514 ft | 14 kts | 353° |
| 2026-04-26 18:28 | -26.13360 | 28.25502 | 5520 ft | 14 kts | 348° |
| 2026-04-26 18:29 | -26.13264 | 28.25480 | 5527 ft | 14 kts | 348° |
| 2026-04-26 18:29 | -26.13167 | 28.25458 | 5534 ft | 14 kts | 347° |
| 2026-04-26 18:29 | -26.13074 | 28.25421 | 5537 ft | 14 kts | 335° |
| 2026-04-26 18:29 | -26.12991 | 28.25363 | 5537 ft | 14 kts | 321° |
| 2026-04-26 18:30 | -26.12923 | 28.25283 | 5537 ft | 14 kts | 307° |
| 2026-04-26 18:30 | -26.12874 | 28.25188 | 5537 ft | 14 kts | 293° |
| 2026-04-26 18:30 | -26.12845 | 28.25085 | 5537 ft | 14 kts | 285° |
| 2026-04-26 18:30 | -26.12819 | 28.24979 | 5537 ft | 14 kts | 286° |
| 2026-04-26 18:31 | -26.12792 | 28.24874 | 5537 ft | 14 kts | 286° |
| 2026-04-26 18:31 | -26.12765 | 28.24768 | 5537 ft | 14 kts | 285° |
| 2026-04-26 18:31 | -26.12738 | 28.24662 | 5537 ft | 14 kts | 285° |
| 2026-04-26 18:31 | -26.12712 | 28.24557 | 5542 ft | 14 kts | 286° |
| 2026-04-26 18:32 | -26.12685 | 28.24451 | 5543 ft | 14 kts | 285° |
| 2026-04-26 18:32 | -26.12658 | 28.24346 | 5546 ft | 14 kts | 285° |
| 2026-04-26 18:32 | -26.12632 | 28.24240 | 5544 ft | 14 kts | 285° |
| 2026-04-26 18:32 | -26.12605 | 28.24133 | 5545 ft | 14 kts | 285° |
| 2026-04-26 18:33 | -26.12578 | 28.24026 | 5544 ft | 14 kts | 285° |
| 2026-04-26 18:33 | -26.12558 | 28.23952 | 5548 ft | 0 kts | 286° |
| 2026-04-26 18:34 | -26.12558 | 28.23951 | 5548 ft | 3 kts | 286° |
| 2026-04-26 18:35 | -26.12556 | 28.23905 | 5546 ft | 7 kts | 256° |
| 2026-04-26 18:35 | -26.12589 | 28.23872 | 5549 ft | 7 kts | 206° |
| 2026-04-26 18:35 | -26.12631 | 28.23855 | 5550 ft | 7 kts | 197° |
| 2026-04-26 18:35 | -26.12675 | 28.23842 | 5551 ft | 7 kts | 195° |
| 2026-04-26 18:36 | -26.12719 | 28.23828 | 5550 ft | 7 kts | 195° |
| 2026-04-26 18:36 | -26.12802 | 28.23803 | 5551 ft | 15 kts | 195° |
| 2026-04-26 18:36 | -26.12906 | 28.23770 | 5550 ft | 15 kts | 196° |
| 2026-04-26 18:36 | -26.13009 | 28.23738 | 5550 ft | 15 kts | 196° |
| 2026-04-26 18:37 | -26.13087 | 28.23714 | 5554 ft | 8 kts | 195° |
| 2026-04-26 18:37 | -26.13121 | 28.23683 | 5554 ft | 6 kts | 239° |
| 2026-04-26 18:37 | -26.13130 | 28.23642 | 5553 ft | 6 kts | 266° |
| 2026-04-26 18:37 | -26.13125 | 28.23608 | 5552 ft | 4 kts | 295° |
| 2026-04-26 18:38 | -26.13100 | 28.23605 | 5552 ft | 4 kts | 10° |
| 2026-04-26 18:38 | -26.13072 | 28.23609 | 5554 ft | 4 kts | 6° |
| 2026-04-26 18:38 | -26.13045 | 28.23612 | 5552 ft | 0 kts | 6° |
| 2026-04-26 18:39 | -26.13042 | 28.23612 | 5552 ft | 0 kts | 6° |